<?xml version='1.0' encoding='UTF-8'?><gpx version="1.1" creator="JPX - https://github.com/jenetics/jpx" xmlns="http://www.topografix.com/GPX/1/1"><trk><trkseg><trkpt lat="45.823591975537894" lon="8.937444314368943"><ele>423.4</ele><time>2026-04-24T14:52:46Z</time></trkpt><trkpt lat="45.823581838445534" lon="8.937557223230879"><ele>423.79999999999995</ele><time>2026-04-24T14:52:48Z</time></trkpt><trkpt lat="45.82356535719614" lon="8.93770425976461"><ele>424.2</ele><time>2026-04-24T14:52:50Z</time></trkpt><trkpt lat="45.82354637065349" lon="8.937861773583872"><ele>424.6</ele><time>2026-04-24T14:52:52Z</time></trkpt><trkpt lat="45.82352826428207" lon="8.93800676920134"><ele>425.0</ele><time>2026-04-24T14:52:54Z</time></trkpt><trkpt lat="45.823531413758" lon="8.938142428809895"><ele>425.0</ele><time>2026-04-24T14:52:56Z</time></trkpt><trkpt lat="45.82364208077053" lon="8.938192789561663"><ele>425.0</ele><time>2026-04-24T14:52:58Z</time></trkpt><trkpt lat="45.823712012907855" lon="8.938171587306982"><ele>425.0</ele><time>2026-04-24T14:52:59Z</time></trkpt><trkpt lat="45.823774224926375" lon="8.938150958064421"><ele>425.0</ele><time>2026-04-24T14:53:00Z</time></trkpt><trkpt lat="45.82389137497043" lon="8.938129050459528"><ele>425.0</ele><time>2026-04-24T14:53:02Z</time></trkpt><trkpt lat="45.823970138581025" lon="8.938081962125505"><ele>425.0</ele><time>2026-04-24T14:53:03Z</time></trkpt><trkpt lat="45.82406268913825" lon="8.938073519581552"><ele>425.0</ele><time>2026-04-24T14:53:05Z</time></trkpt><trkpt lat="45.82416247380537" lon="8.938113423389693"><ele>425.0</ele><time>2026-04-24T14:53:07Z</time></trkpt><trkpt lat="45.82427081393247" lon="8.938126027153949"><ele>425.0</ele><time>2026-04-24T14:53:09Z</time></trkpt><trkpt lat="45.82438157486201" lon="8.93815016169695"><ele>425.0</ele><time>2026-04-24T14:53:11Z</time></trkpt><trkpt lat="45.82448924743582" lon="8.938157463022717"><ele>425.2</ele><time>2026-04-24T14:53:13Z</time></trkpt><trkpt lat="45.82458390968702" lon="8.938180298895661"><ele>425.4</ele><time>2026-04-24T14:53:15Z</time></trkpt><trkpt lat="45.82468218922101" lon="8.938176247849766"><ele>425.6</ele><time>2026-04-24T14:53:17Z</time></trkpt><trkpt lat="45.82478196300001" lon="8.93818820119037"><ele>425.8</ele><time>2026-04-24T14:53:19Z</time></trkpt><trkpt lat="45.82487305599033" lon="8.93820822126392"><ele>426.0</ele><time>2026-04-24T14:53:21Z</time></trkpt><trkpt lat="45.82496482024814" lon="8.9382580091109"><ele>425.4</ele><time>2026-04-24T14:53:23Z</time></trkpt><trkpt lat="45.82501424723708" lon="8.938405765803044"><ele>424.8</ele><time>2026-04-24T14:53:25Z</time></trkpt><trkpt lat="45.824982156466696" lon="8.938556565968797"><ele>424.2</ele><time>2026-04-24T14:53:27Z</time></trkpt><trkpt lat="45.824983414095804" lon="8.938690754967201"><ele>423.59999999999997</ele><time>2026-04-24T14:53:29Z</time></trkpt><trkpt lat="45.82493288523028" lon="8.938798163184643"><ele>423.0</ele><time>2026-04-24T14:53:31Z</time></trkpt><trkpt lat="45.82489768026726" lon="8.938932653354257"><ele>423.0</ele><time>2026-04-24T14:53:33Z</time></trkpt><trkpt lat="45.824863330145135" lon="8.939063919019594"><ele>423.0</ele><time>2026-04-24T14:53:35Z</time></trkpt><trkpt lat="45.82482843509959" lon="8.939197267067003"><ele>423.0</ele><time>2026-04-24T14:53:37Z</time></trkpt><trkpt lat="45.824806079553674" lon="8.939335653661082"><ele>423.0</ele><time>2026-04-24T14:53:39Z</time></trkpt><trkpt lat="45.82475609274303" lon="8.939467103394803"><ele>423.0</ele><time>2026-04-24T14:53:41Z</time></trkpt><trkpt lat="45.824723985784985" lon="8.939591985693179"><ele>423.0</ele><time>2026-04-24T14:53:43Z</time></trkpt><trkpt lat="45.82469681892174" lon="8.93973535067342"><ele>423.0</ele><time>2026-04-24T14:53:45Z</time></trkpt><trkpt lat="45.8246728811351" lon="8.939887828337076"><ele>423.0</ele><time>2026-04-24T14:53:47Z</time></trkpt><trkpt lat="45.82464984782622" lon="8.940051751427129"><ele>423.0</ele><time>2026-04-24T14:53:49Z</time></trkpt><trkpt lat="45.82461612628541" lon="8.940220176137613"><ele>422.8333333333333</ele><time>2026-04-24T14:53:51Z</time></trkpt><trkpt lat="45.82460387773628" lon="8.94031484591233"><ele>422.66666666666663</ele><time>2026-04-24T14:53:52Z</time></trkpt><trkpt lat="45.82457313348956" lon="8.940490966740692"><ele>422.5</ele><time>2026-04-24T14:53:54Z</time></trkpt><trkpt lat="45.82455755430444" lon="8.94057973905518"><ele>422.3333333333333</ele><time>2026-04-24T14:53:55Z</time></trkpt><trkpt lat="45.82454396499745" lon="8.940668235600691"><ele>422.16666666666663</ele><time>2026-04-24T14:53:56Z</time></trkpt><trkpt lat="45.824511462850474" lon="8.940840391978051"><ele>422.0</ele><time>2026-04-24T14:53:58Z</time></trkpt><trkpt lat="45.824476476423975" lon="8.940965396276809"><ele>422.0</ele><time>2026-04-24T14:54:00Z</time></trkpt><trkpt lat="45.82450752367096" lon="8.94111924236051"><ele>422.0</ele><time>2026-04-24T14:54:09Z</time></trkpt><trkpt lat="45.82457257266506" lon="8.941196930323056"><ele>422.0</ele><time>2026-04-24T14:54:11Z</time></trkpt><trkpt lat="45.82464962382986" lon="8.941278194385736"><ele>422.0</ele><time>2026-04-24T14:54:13Z</time></trkpt><trkpt lat="45.82472897492116" lon="8.941369520366854"><ele>422.0</ele><time>2026-04-24T14:54:15Z</time></trkpt><trkpt lat="45.82482380641465" lon="8.941459071258402"><ele>422.0</ele><time>2026-04-24T14:54:17Z</time></trkpt><trkpt lat="45.82491452242395" lon="8.941567075836117"><ele>422.0</ele><time>2026-04-24T14:54:19Z</time></trkpt><trkpt lat="45.82499867153568" lon="8.941668877729004"><ele>422.0</ele><time>2026-04-24T14:54:21Z</time></trkpt><trkpt lat="45.82508867136254" lon="8.94176807320803"><ele>422.0</ele><time>2026-04-24T14:54:23Z</time></trkpt><trkpt lat="45.825185567610404" lon="8.941873389932157"><ele>422.0</ele><time>2026-04-24T14:54:25Z</time></trkpt><trkpt lat="45.8252715413053" lon="8.941986338315903"><ele>422.0</ele><time>2026-04-24T14:54:27Z</time></trkpt><trkpt lat="45.82534662448244" lon="8.942111847393155"><ele>422.0</ele><time>2026-04-24T14:54:29Z</time></trkpt><trkpt lat="45.82542292288951" lon="8.942243644522657"><ele>422.0</ele><time>2026-04-24T14:54:31Z</time></trkpt><trkpt lat="45.825508028315234" lon="8.94236788142468"><ele>422.0</ele><time>2026-04-24T14:54:33Z</time></trkpt><trkpt lat="45.82558670170564" lon="8.942501605815632"><ele>422.0</ele><time>2026-04-24T14:54:35Z</time></trkpt><trkpt lat="45.82567222742919" lon="8.942625960153885"><ele>422.0</ele><time>2026-04-24T14:54:37Z</time></trkpt><trkpt lat="45.82571437652232" lon="8.94269418330238"><ele>422.0</ele><time>2026-04-24T14:54:38Z</time></trkpt><trkpt lat="45.82580625436927" lon="8.942829454964496"><ele>422.0</ele><time>2026-04-24T14:54:40Z</time></trkpt><trkpt lat="45.82588363579317" lon="8.942964199278341"><ele>421.8</ele><time>2026-04-24T14:54:42Z</time></trkpt><trkpt lat="45.825962652269965" lon="8.943099344359078"><ele>421.6</ele><time>2026-04-24T14:54:44Z</time></trkpt><trkpt lat="45.8260271148086" lon="8.943216885908726"><ele>421.40000000000003</ele><time>2026-04-24T14:54:45.999Z</time></trkpt><trkpt lat="45.82607822538258" lon="8.943276530473716"><ele>421.20000000000005</ele><time>2026-04-24T14:54:46.999Z</time></trkpt><trkpt lat="45.82615578104775" lon="8.943401028465688"><ele>421.0</ele><time>2026-04-24T14:54:48.999Z</time></trkpt><trkpt lat="45.82623210514624" lon="8.943530788837577"><ele>420.0</ele><time>2026-04-24T14:54:50.999Z</time></trkpt><trkpt lat="45.826307860261394" lon="8.943653888320878"><ele>419.0</ele><time>2026-04-24T14:54:52.999Z</time></trkpt><trkpt lat="45.82639105473007" lon="8.943775499287632"><ele>418.0</ele><time>2026-04-24T14:54:54.999Z</time></trkpt><trkpt lat="45.82646502676052" lon="8.943895452865235"><ele>417.0</ele><time>2026-04-24T14:54:56.999Z</time></trkpt><trkpt lat="45.826546885821" lon="8.944011117761098"><ele>417.0</ele><time>2026-04-24T14:54:58.999Z</time></trkpt><trkpt lat="45.82662848799846" lon="8.94412698534117"><ele>417.0</ele><time>2026-04-24T14:55:00.999Z</time></trkpt><trkpt lat="45.826697371868775" lon="8.944235182785679"><ele>417.0</ele><time>2026-04-24T14:55:02.999Z</time></trkpt><trkpt lat="45.82675073131842" lon="8.944283179143085"><ele>417.0</ele><time>2026-04-24T14:55:03.999Z</time></trkpt><trkpt lat="45.82683371123467" lon="8.94437178131607"><ele>417.0</ele><time>2026-04-24T14:55:05.999Z</time></trkpt><trkpt lat="45.82689443644152" lon="8.944408595508962"><ele>417.0</ele><time>2026-04-24T14:55:07.999Z</time></trkpt><trkpt lat="45.82695173202629" lon="8.944449810440544"><ele>417.75</ele><time>2026-04-24T14:55:09.999Z</time></trkpt><trkpt lat="45.82699673284801" lon="8.944614446193675"><ele>418.5</ele><time>2026-04-24T14:55:11.999Z</time></trkpt><trkpt lat="45.82707186800742" lon="8.944729402833747"><ele>419.25</ele><time>2026-04-24T14:55:13.999Z</time></trkpt><trkpt lat="45.82715529788709" lon="8.944841880458617"><ele>420.0</ele><time>2026-04-24T14:55:15.999Z</time></trkpt><trkpt lat="45.82724036034086" lon="8.944960893350002"><ele>418.75</ele><time>2026-04-24T14:55:17.999Z</time></trkpt><trkpt lat="45.82733330663885" lon="8.945079787111542"><ele>417.5</ele><time>2026-04-24T14:55:19.999Z</time></trkpt><trkpt lat="45.82742237696802" lon="8.945201246456357"><ele>416.25</ele><time>2026-04-24T14:55:22Z</time></trkpt><trkpt lat="45.82750570744294" lon="8.945323571230933"><ele>415.0</ele><time>2026-04-24T14:55:24Z</time></trkpt><trkpt lat="45.827587390596456" lon="8.945442482146724"><ele>416.75</ele><time>2026-04-24T14:55:26Z</time></trkpt><trkpt lat="45.82766288939887" lon="8.945574415635205"><ele>418.5</ele><time>2026-04-24T14:55:28Z</time></trkpt><trkpt lat="45.82773395911068" lon="8.945710062540055"><ele>420.25</ele><time>2026-04-24T14:55:30Z</time></trkpt><trkpt lat="45.82780087228717" lon="8.945834978637784"><ele>422.0</ele><time>2026-04-24T14:55:32Z</time></trkpt><trkpt lat="45.827863779918516" lon="8.945966135902964"><ele>422.0</ele><time>2026-04-24T14:55:34Z</time></trkpt><trkpt lat="45.827919536298886" lon="8.946098546626128"><ele>422.0</ele><time>2026-04-24T14:55:36Z</time></trkpt><trkpt lat="45.82796607101608" lon="8.946242178066456"><ele>422.0</ele><time>2026-04-24T14:55:38Z</time></trkpt><trkpt lat="45.82802287315775" lon="8.946380327849875"><ele>422.0</ele><time>2026-04-24T14:55:40Z</time></trkpt><trkpt lat="45.82805884374973" lon="8.94653612994"><ele>422.0</ele><time>2026-04-24T14:55:42Z</time></trkpt><trkpt lat="45.828065881986376" lon="8.946628573184595"><ele>421.16666666666663</ele><time>2026-04-24T14:55:43Z</time></trkpt><trkpt lat="45.82809144445589" lon="8.946798954979538"><ele>420.3333333333333</ele><time>2026-04-24T14:55:45Z</time></trkpt><trkpt lat="45.8280939298262" lon="8.946899268728263"><ele>419.5</ele><time>2026-04-24T14:55:46Z</time></trkpt><trkpt lat="45.82810382834387" lon="8.947001634490245"><ele>418.66666666666663</ele><time>2026-04-24T14:55:47Z</time></trkpt><trkpt lat="45.82811587513911" lon="8.947122053216033"><ele>417.8333333333333</ele><time>2026-04-24T14:55:48Z</time></trkpt><trkpt lat="45.82812624556447" lon="8.947232014035002"><ele>417.0</ele><time>2026-04-24T14:55:49Z</time></trkpt><trkpt lat="45.82813922841339" lon="8.94735324676219"><ele>417.0</ele><time>2026-04-24T14:55:50Z</time></trkpt><trkpt lat="45.828142258695685" lon="8.947486827729874"><ele>417.0</ele><time>2026-04-24T14:55:51Z</time></trkpt><trkpt lat="45.82814027867547" lon="8.947597085862336"><ele>417.0</ele><time>2026-04-24T14:55:52Z</time></trkpt><trkpt lat="45.82812179598491" lon="8.947737444585421"><ele>417.0</ele><time>2026-04-24T14:55:53Z</time></trkpt><trkpt lat="45.828086339442386" lon="8.94786161972444"><ele>417.0</ele><time>2026-04-24T14:55:54Z</time></trkpt><trkpt lat="45.8280482341553" lon="8.947973053603036"><ele>416.6666666666667</ele><time>2026-04-24T14:55:55Z</time></trkpt><trkpt lat="45.82801125308734" lon="8.94808609089548"><ele>416.33333333333337</ele><time>2026-04-24T14:55:56Z</time></trkpt><trkpt lat="45.82797136684271" lon="8.948201490518715"><ele>416.0</ele><time>2026-04-24T14:55:57Z</time></trkpt><trkpt lat="45.827934254087346" lon="8.948306885368988"><ele>415.6666666666667</ele><time>2026-04-24T14:55:58Z</time></trkpt><trkpt lat="45.8278954326918" lon="8.948410322071847"><ele>415.33333333333337</ele><time>2026-04-24T14:55:59Z</time></trkpt><trkpt lat="45.82785759521138" lon="8.948514775858394"><ele>415.0</ele><time>2026-04-24T14:56:00Z</time></trkpt><trkpt lat="45.82782225790676" lon="8.948612678110837"><ele>415.57142857142856</ele><time>2026-04-24T14:56:01Z</time></trkpt><trkpt lat="45.82778447100185" lon="8.948707214322717"><ele>416.14285714285717</ele><time>2026-04-24T14:56:02Z</time></trkpt><trkpt lat="45.827749964475075" lon="8.9488005482978"><ele>416.71428571428567</ele><time>2026-04-24T14:56:03Z</time></trkpt><trkpt lat="45.827714800017574" lon="8.948890687790932"><ele>417.2857142857143</ele><time>2026-04-24T14:56:04Z</time></trkpt><trkpt lat="45.82768002614691" lon="8.948978446537003"><ele>417.85714285714283</ele><time>2026-04-24T14:56:05Z</time></trkpt><trkpt lat="45.827647238359155" lon="8.949062656297697"><ele>418.4285714285714</ele><time>2026-04-24T14:56:06Z</time></trkpt><trkpt lat="45.827626563217095" lon="8.949162906417715"><ele>419.0</ele><time>2026-04-24T14:56:07Z</time></trkpt><trkpt lat="45.827598308153426" lon="8.949260261235995"><ele>419.16666666666663</ele><time>2026-04-24T14:56:08Z</time></trkpt><trkpt lat="45.82757273667858" lon="8.949365364460501"><ele>419.3333333333333</ele><time>2026-04-24T14:56:09Z</time></trkpt><trkpt lat="45.82755774440828" lon="8.949462397741394"><ele>419.5</ele><time>2026-04-24T14:56:10Z</time></trkpt><trkpt lat="45.82757894630554" lon="8.94956492920012"><ele>419.66666666666663</ele><time>2026-04-24T14:56:11Z</time></trkpt><trkpt lat="45.827627276938266" lon="8.949628020122525"><ele>419.8333333333333</ele><time>2026-04-24T14:56:12Z</time></trkpt><trkpt lat="45.82767022927377" lon="8.949827978068937"><ele>420.0</ele><time>2026-04-24T14:56:14Z</time></trkpt><trkpt lat="45.82769643464377" lon="8.949913986126939"><ele>420.0</ele><time>2026-04-24T14:56:15Z</time></trkpt><trkpt lat="45.827656182934255" lon="8.950012375308521"><ele>420.0</ele><time>2026-04-24T14:56:16Z</time></trkpt><trkpt lat="45.82762045671156" lon="8.950092107934438"><ele>420.0</ele><time>2026-04-24T14:56:17Z</time></trkpt><trkpt lat="45.82757863938774" lon="8.95017271687978"><ele>420.0</ele><time>2026-04-24T14:56:18Z</time></trkpt><trkpt lat="45.82754485413472" lon="8.950257347206927"><ele>420.0</ele><time>2026-04-24T14:56:19Z</time></trkpt><trkpt lat="45.82751292914662" lon="8.950344918540015"><ele>420.0</ele><time>2026-04-24T14:56:20Z</time></trkpt><trkpt lat="45.82748363239263" lon="8.950428098600474"><ele>420.0</ele><time>2026-04-24T14:56:21Z</time></trkpt><trkpt lat="45.82745072800369" lon="8.950512645473774"><ele>419.85714285714283</ele><time>2026-04-24T14:56:22Z</time></trkpt><trkpt lat="45.827416973468885" lon="8.950601387706769"><ele>419.7142857142857</ele><time>2026-04-24T14:56:23Z</time></trkpt><trkpt lat="45.827387479734135" lon="8.950691770249948"><ele>419.57142857142856</ele><time>2026-04-24T14:56:24Z</time></trkpt><trkpt lat="45.8273616867949" lon="8.950781465776926"><ele>419.42857142857144</ele><time>2026-04-24T14:56:25Z</time></trkpt><trkpt lat="45.82733693728225" lon="8.950869723013213"><ele>419.2857142857143</ele><time>2026-04-24T14:56:26Z</time></trkpt><trkpt lat="45.82730988543887" lon="8.950959410542414"><ele>419.1428571428571</ele><time>2026-04-24T14:56:27Z</time></trkpt><trkpt lat="45.827281225537014" lon="8.95104694046436"><ele>419.0</ele><time>2026-04-24T14:56:28Z</time></trkpt><trkpt lat="45.8272524555805" lon="8.951137623403705"><ele>418.99999999999994</ele><time>2026-04-24T14:56:29Z</time></trkpt><trkpt lat="45.827222542227496" lon="8.95122193295235"><ele>419.0</ele><time>2026-04-24T14:56:30Z</time></trkpt><trkpt lat="45.827189798666254" lon="8.951306952105263"><ele>419.0</ele><time>2026-04-24T14:56:31Z</time></trkpt><trkpt lat="45.82715660992844" lon="8.951391149212371"><ele>419.0</ele><time>2026-04-24T14:56:32Z</time></trkpt><trkpt lat="45.827119815808075" lon="8.951469554400838"><ele>419.0</ele><time>2026-04-24T14:56:33Z</time></trkpt><trkpt lat="45.82708080019262" lon="8.951543130988522"><ele>418.99999999999994</ele><time>2026-04-24T14:56:34Z</time></trkpt><trkpt lat="45.827045531662364" lon="8.951621761294048"><ele>419.0</ele><time>2026-04-24T14:56:35Z</time></trkpt><trkpt lat="45.82700451642795" lon="8.951694290098875"><ele>419.4</ele><time>2026-04-24T14:56:36Z</time></trkpt><trkpt lat="45.82692907326153" lon="8.951830959325628"><ele>419.79999999999995</ele><time>2026-04-24T14:56:38Z</time></trkpt><trkpt lat="45.82688907351739" lon="8.951905387637195"><ele>420.20000000000005</ele><time>2026-04-24T14:56:39Z</time></trkpt><trkpt lat="45.82682332831526" lon="8.95203522583416"><ele>420.6</ele><time>2026-04-24T14:56:41Z</time></trkpt><trkpt lat="45.826755713786376" lon="8.952164046912907"><ele>421.0</ele><time>2026-04-24T14:56:43Z</time></trkpt><trkpt lat="45.82668347862469" lon="8.95229160106102"><ele>419.20000000000005</ele><time>2026-04-24T14:56:45Z</time></trkpt><trkpt lat="45.82661150905153" lon="8.952424074321096"><ele>417.40000000000003</ele><time>2026-04-24T14:56:47Z</time></trkpt><trkpt lat="45.82657442597681" lon="8.952497665329826"><ele>415.6</ele><time>2026-04-24T14:56:48Z</time></trkpt><trkpt lat="45.82650034948087" lon="8.952644396262853"><ele>413.8</ele><time>2026-04-24T14:56:50Z</time></trkpt><trkpt lat="45.826421237944174" lon="8.95277852181149"><ele>412.0</ele><time>2026-04-24T14:56:51.998Z</time></trkpt><trkpt lat="45.82634813034324" lon="8.952913411544966"><ele>412.0</ele><time>2026-04-24T14:56:53.998Z</time></trkpt><trkpt lat="45.82628064855976" lon="8.953046503929567"><ele>412.0</ele><time>2026-04-24T14:56:55.998Z</time></trkpt><trkpt lat="45.826220173142644" lon="8.953186958173003"><ele>412.0</ele><time>2026-04-24T14:56:57.998Z</time></trkpt><trkpt lat="45.82617253427881" lon="8.953331898062741"><ele>412.0</ele><time>2026-04-24T14:56:59.998Z</time></trkpt><trkpt lat="45.8261259115327" lon="8.95347119135572"><ele>412.0</ele><time>2026-04-24T14:57:01.998Z</time></trkpt><trkpt lat="45.82607886372832" lon="8.953610175048127"><ele>412.20000000000005</ele><time>2026-04-24T14:57:03.998Z</time></trkpt><trkpt lat="45.82604976595658" lon="8.953750451871393"><ele>412.4</ele><time>2026-04-24T14:57:05.999Z</time></trkpt><trkpt lat="45.82601980305713" lon="8.9538824084547"><ele>412.6</ele><time>2026-04-24T14:57:07.999Z</time></trkpt><trkpt lat="45.82598772051572" lon="8.953973709592999"><ele>412.79999999999995</ele><time>2026-04-24T14:57:09.999Z</time></trkpt><trkpt lat="45.8258854553222" lon="8.953969536151789"><ele>413.0</ele><time>2026-04-24T14:57:11.999Z</time></trkpt><trkpt lat="45.825764834418656" lon="8.953935388809795"><ele>412.4</ele><time>2026-04-24T14:57:13.999Z</time></trkpt><trkpt lat="45.825660472301365" lon="8.953925630434952"><ele>411.79999999999995</ele><time>2026-04-24T14:57:15.999Z</time></trkpt><trkpt lat="45.82554721766032" lon="8.953890195073441"><ele>411.2</ele><time>2026-04-24T14:57:17.999Z</time></trkpt><trkpt lat="45.82544091232739" lon="8.953880456671431"><ele>410.6</ele><time>2026-04-24T14:57:19.999Z</time></trkpt><trkpt lat="45.82533130797662" lon="8.953853140986817"><ele>410.0</ele><time>2026-04-24T14:57:21.999Z</time></trkpt><trkpt lat="45.82521614261499" lon="8.953839969713425"><ele>409.4</ele><time>2026-04-24T14:57:23.999Z</time></trkpt><trkpt lat="45.8251034693972" lon="8.953820489000893"><ele>408.8</ele><time>2026-04-24T14:57:25.999Z</time></trkpt><trkpt lat="45.82498853093889" lon="8.953811361001673"><ele>408.20000000000005</ele><time>2026-04-24T14:57:27.999Z</time></trkpt><trkpt lat="45.82488555890642" lon="8.953775652037244"><ele>407.6</ele><time>2026-04-24T14:57:30Z</time></trkpt><trkpt lat="45.82483087479149" lon="8.953826918172638"><ele>407.0</ele><time>2026-04-24T14:57:31Z</time></trkpt><trkpt lat="45.82473635170115" lon="8.953837814094559"><ele>407.0</ele><time>2026-04-24T14:57:33Z</time></trkpt><trkpt lat="45.82465338736992" lon="8.953849751351825"><ele>407.0</ele><time>2026-04-24T14:57:35Z</time></trkpt><trkpt lat="45.82455990614683" lon="8.953908807777811"><ele>407.0</ele><time>2026-04-24T14:57:37Z</time></trkpt><trkpt lat="45.82446316782298" lon="8.95393023336365"><ele>407.0</ele><time>2026-04-24T14:57:39Z</time></trkpt><trkpt lat="45.82436162016737" lon="8.953947946838671"><ele>407.0</ele><time>2026-04-24T14:57:41Z</time></trkpt><trkpt lat="45.82426000343371" lon="8.953975172780757"><ele>406.49999999999994</ele><time>2026-04-24T14:57:43Z</time></trkpt><trkpt lat="45.82416120018675" lon="8.954011045962813"><ele>406.0</ele><time>2026-04-24T14:57:45Z</time></trkpt><trkpt lat="45.824065768017704" lon="8.95404439177659"><ele>405.5</ele><time>2026-04-24T14:57:47Z</time></trkpt><trkpt lat="45.824000140915224" lon="8.954056678829135"><ele>405.0</ele><time>2026-04-24T14:57:50Z</time></trkpt><trkpt lat="45.82393923457567" lon="8.954100411411929"><ele>404.49999999999994</ele><time>2026-04-24T14:57:56Z</time></trkpt><trkpt lat="45.82391817776499" lon="8.954216400278732"><ele>404.0</ele><time>2026-04-24T14:57:58Z</time></trkpt><trkpt lat="45.82391670963727" lon="8.954349470663029"><ele>404.0</ele><time>2026-04-24T14:58:00Z</time></trkpt><trkpt lat="45.823902675373986" lon="8.954491973166794"><ele>404.0</ele><time>2026-04-24T14:58:02Z</time></trkpt><trkpt lat="45.823888997699456" lon="8.954638507253884"><ele>404.0</ele><time>2026-04-24T14:58:04Z</time></trkpt><trkpt lat="45.82387117399098" lon="8.954784092423836"><ele>404.0</ele><time>2026-04-24T14:58:06Z</time></trkpt><trkpt lat="45.823844326039065" lon="8.954927919776692"><ele>404.0</ele><time>2026-04-24T14:58:08Z</time></trkpt><trkpt lat="45.82382215135898" lon="8.955071224374146"><ele>404.2</ele><time>2026-04-24T14:58:10Z</time></trkpt><trkpt lat="45.8237958775969" lon="8.955211704342284"><ele>404.4</ele><time>2026-04-24T14:58:12Z</time></trkpt><trkpt lat="45.82376627139539" lon="8.955351077028425"><ele>404.6</ele><time>2026-04-24T14:58:14Z</time></trkpt><trkpt lat="45.82373201417927" lon="8.95548508046219"><ele>404.8</ele><time>2026-04-24T14:58:16Z</time></trkpt><trkpt lat="45.82369158214218" lon="8.955620090142004"><ele>405.0</ele><time>2026-04-24T14:58:18Z</time></trkpt><trkpt lat="45.82364011643677" lon="8.955742014217154"><ele>405.0</ele><time>2026-04-24T14:58:20Z</time></trkpt><trkpt lat="45.82359626725913" lon="8.955868689125941"><ele>405.0</ele><time>2026-04-24T14:58:22Z</time></trkpt><trkpt lat="45.823554111932275" lon="8.955997796904626"><ele>405.0</ele><time>2026-04-24T14:58:24Z</time></trkpt><trkpt lat="45.82350782145492" lon="8.956120982463915"><ele>405.0</ele><time>2026-04-24T14:58:26Z</time></trkpt><trkpt lat="45.82347746383139" lon="8.956244917413912"><ele>405.0</ele><time>2026-04-24T14:58:28Z</time></trkpt><trkpt lat="45.82347080648297" lon="8.956370262765224"><ele>405.6</ele><time>2026-04-24T14:58:30Z</time></trkpt><trkpt lat="45.82346633370694" lon="8.95646569830708"><ele>406.2</ele><time>2026-04-24T14:58:32Z</time></trkpt><trkpt lat="45.82330085523009" lon="8.956382354529827"><ele>406.79999999999995</ele><time>2026-04-24T14:58:37.001Z</time></trkpt><trkpt lat="45.82323092451968" lon="8.956334852660387"><ele>407.4</ele><time>2026-04-24T14:58:39.001Z</time></trkpt><trkpt lat="45.823165182623086" lon="8.956307809819117"><ele>408.0</ele><time>2026-04-24T14:58:41.001Z</time></trkpt><trkpt lat="45.823101743388406" lon="8.95626658266939"><ele>408.0</ele><time>2026-04-24T14:58:43.001Z</time></trkpt><trkpt lat="45.82304092556962" lon="8.956218807007765"><ele>408.0</ele><time>2026-04-24T14:58:45.001Z</time></trkpt><trkpt lat="45.82298310476965" lon="8.956152743435084"><ele>408.0</ele><time>2026-04-24T14:58:47.001Z</time></trkpt><trkpt lat="45.822914298817025" lon="8.95609484516528"><ele>408.0</ele><time>2026-04-24T14:58:49.001Z</time></trkpt><trkpt lat="45.822837719835896" lon="8.955991006368153"><ele>408.0</ele><time>2026-04-24T14:58:51.001Z</time></trkpt><trkpt lat="45.82275510030487" lon="8.955910394447827"><ele>408.0</ele><time>2026-04-24T14:58:53.001Z</time></trkpt><trkpt lat="45.82267378836169" lon="8.955811405921661"><ele>407.4</ele><time>2026-04-24T14:58:55.001Z</time></trkpt><trkpt lat="45.8225915482144" lon="8.95571903969511"><ele>406.79999999999995</ele><time>2026-04-24T14:58:56.997Z</time></trkpt><trkpt lat="45.822509583506694" lon="8.955622494389921"><ele>406.2</ele><time>2026-04-24T14:58:58.997Z</time></trkpt><trkpt lat="45.8224289575322" lon="8.955536665166523"><ele>405.6</ele><time>2026-04-24T14:59:00.997Z</time></trkpt><trkpt lat="45.82234594638333" lon="8.955447287002348"><ele>405.0</ele><time>2026-04-24T14:59:02.998Z</time></trkpt><trkpt lat="45.82226485573904" lon="8.955358457813267"><ele>405.0</ele><time>2026-04-24T14:59:04.998Z</time></trkpt><trkpt lat="45.82218521348519" lon="8.955268672191275"><ele>405.0</ele><time>2026-04-24T14:59:06.998Z</time></trkpt><trkpt lat="45.822101365980565" lon="8.955173856538654"><ele>405.0</ele><time>2026-04-24T14:59:08.998Z</time></trkpt><trkpt lat="45.822019892526036" lon="8.955087505833061"><ele>405.0</ele><time>2026-04-24T14:59:10.998Z</time></trkpt><trkpt lat="45.82193765344506" lon="8.955000895412253"><ele>405.0</ele><time>2026-04-24T14:59:12.998Z</time></trkpt><trkpt lat="45.82185411628292" lon="8.954916293010024"><ele>404.0</ele><time>2026-04-24T14:59:14.998Z</time></trkpt><trkpt lat="45.821769970846496" lon="8.954824951081934"><ele>403.0</ele><time>2026-04-24T14:59:16.998Z</time></trkpt><trkpt lat="45.82168590877343" lon="8.954735763452694"><ele>402.0</ele><time>2026-04-24T14:59:18.999Z</time></trkpt><trkpt lat="45.821603725750315" lon="8.954645547404327"><ele>401.0</ele><time>2026-04-24T14:59:20.999Z</time></trkpt><trkpt lat="45.821524886184996" lon="8.954556163823268"><ele>400.0</ele><time>2026-04-24T14:59:22.999Z</time></trkpt><trkpt lat="45.82145553984227" lon="8.954452002497776"><ele>400.0</ele><time>2026-04-24T14:59:24.999Z</time></trkpt><trkpt lat="45.82138131453442" lon="8.954350649192687"><ele>400.0</ele><time>2026-04-24T14:59:26.999Z</time></trkpt><trkpt lat="45.82131104580492" lon="8.954236486849423"><ele>400.0</ele><time>2026-04-24T14:59:28.999Z</time></trkpt><trkpt lat="45.82122547310129" lon="8.954145291147022"><ele>400.0</ele><time>2026-04-24T14:59:30.999Z</time></trkpt><trkpt lat="45.82115054799705" lon="8.954051154097247"><ele>400.0</ele><time>2026-04-24T14:59:32.999Z</time></trkpt><trkpt lat="45.821080773247026" lon="8.953955576632977"><ele>399.8</ele><time>2026-04-24T14:59:34.999Z</time></trkpt><trkpt lat="45.82100035069172" lon="8.953872271188652"><ele>399.6</ele><time>2026-04-24T14:59:36.999Z</time></trkpt><trkpt lat="45.82089916866789" lon="8.95383740393307"><ele>399.4</ele><time>2026-04-24T14:59:38.999Z</time></trkpt><trkpt lat="45.82080279621928" lon="8.953789240228868"><ele>399.2</ele><time>2026-04-24T14:59:41Z</time></trkpt><trkpt lat="45.82071332911395" lon="8.953724547487965"><ele>399.0</ele><time>2026-04-24T14:59:43Z</time></trkpt><trkpt lat="45.82062810418559" lon="8.9536529728364"><ele>399.0</ele><time>2026-04-24T14:59:45Z</time></trkpt><trkpt lat="45.82054044019456" lon="8.953585439104804"><ele>399.0</ele><time>2026-04-24T14:59:47Z</time></trkpt><trkpt lat="45.82045279755512" lon="8.95352555842923"><ele>399.0</ele><time>2026-04-24T14:59:49Z</time></trkpt><trkpt lat="45.820367379591936" lon="8.953462597570459"><ele>399.0</ele><time>2026-04-24T14:59:51Z</time></trkpt><trkpt lat="45.820283223373444" lon="8.953401491183543"><ele>399.0</ele><time>2026-04-24T14:59:53Z</time></trkpt><trkpt lat="45.82019725317733" lon="8.953339909138748"><ele>399.0</ele><time>2026-04-24T14:59:55Z</time></trkpt><trkpt lat="45.82011202517864" lon="8.953281889446966"><ele>399.0</ele><time>2026-04-24T14:59:57Z</time></trkpt><trkpt lat="45.82002873487547" lon="8.953227315663554"><ele>399.0</ele><time>2026-04-24T14:59:59Z</time></trkpt><trkpt lat="45.81994473787458" lon="8.953170267658189"><ele>399.0</ele><time>2026-04-24T15:00:01Z</time></trkpt><trkpt lat="45.81986446670172" lon="8.953112017660313"><ele>399.0</ele><time>2026-04-24T15:00:03Z</time></trkpt><trkpt lat="45.819794358150844" lon="8.953044144299904"><ele>399.0</ele><time>2026-04-24T15:00:05Z</time></trkpt><trkpt lat="45.81976615830083" lon="8.952926225679374"><ele>399.0</ele><time>2026-04-24T15:00:07Z</time></trkpt><trkpt lat="45.8197421668394" lon="8.952823086454686"><ele>399.0</ele><time>2026-04-24T15:00:09Z</time></trkpt><trkpt lat="45.819688574887955" lon="8.952760945102497"><ele>399.0</ele><time>2026-04-24T15:00:12Z</time></trkpt><trkpt lat="45.81960997021276" lon="8.952806646955954"><ele>399.0</ele><time>2026-04-24T15:00:20Z</time></trkpt><trkpt lat="45.819569102771794" lon="8.952701561836363"><ele>399.0</ele><time>2026-04-24T15:00:21Z</time></trkpt><trkpt lat="45.81947376687141" lon="8.95269889652438"><ele>399.0</ele><time>2026-04-24T15:00:23Z</time></trkpt><trkpt lat="45.819378669429085" lon="8.952704888608492"><ele>399.0</ele><time>2026-04-24T15:00:25.001Z</time></trkpt><trkpt lat="45.8192789253389" lon="8.952712369391591"><ele>399.0</ele><time>2026-04-24T15:00:27.001Z</time></trkpt><trkpt lat="45.819233734636924" lon="8.952805461009934"><ele>399.0</ele><time>2026-04-24T15:00:28.001Z</time></trkpt><trkpt lat="45.81914211798804" lon="8.95286723975033"><ele>399.0</ele><time>2026-04-24T15:00:30.001Z</time></trkpt><trkpt lat="45.819058264055215" lon="8.952945624556655"><ele>399.2</ele><time>2026-04-24T15:00:32.001Z</time></trkpt><trkpt lat="45.81898304958107" lon="8.953041338886333"><ele>399.4</ele><time>2026-04-24T15:00:34.001Z</time></trkpt><trkpt lat="45.81891754064644" lon="8.95315562130843"><ele>399.6</ele><time>2026-04-24T15:00:36.001Z</time></trkpt><trkpt lat="45.81886759572655" lon="8.95325636756609"><ele>399.8</ele><time>2026-04-24T15:00:38.001Z</time></trkpt><trkpt lat="45.81880705782693" lon="8.953378471935858"><ele>400.0</ele><time>2026-04-24T15:00:40.001Z</time></trkpt><trkpt lat="45.81875251879761" lon="8.953483988286417"><ele>401.00000000000006</ele><time>2026-04-24T15:00:42.001Z</time></trkpt><trkpt lat="45.818691357201594" lon="8.953577498006556"><ele>402.0</ele><time>2026-04-24T15:00:44.001Z</time></trkpt><trkpt lat="45.81863395141712" lon="8.953669516125347"><ele>403.0</ele><time>2026-04-24T15:00:46.001Z</time></trkpt><trkpt lat="45.81857605613346" lon="8.953756952350616"><ele>404.0</ele><time>2026-04-24T15:00:48.001Z</time></trkpt><trkpt lat="45.818501122154075" lon="8.953813396600285"><ele>405.00000000000006</ele><time>2026-04-24T15:00:50.001Z</time></trkpt><trkpt lat="45.8184407335457" lon="8.953886863006431"><ele>406.0</ele><time>2026-04-24T15:00:52.001Z</time></trkpt><trkpt lat="45.81836838972797" lon="8.953924263394129"><ele>406.00000000000006</ele><time>2026-04-24T15:00:54.001Z</time></trkpt><trkpt lat="45.818294088902434" lon="8.953948082170413"><ele>406.0</ele><time>2026-04-24T15:00:56.001Z</time></trkpt><trkpt lat="45.81821786831088" lon="8.953975144305144"><ele>406.0</ele><time>2026-04-24T15:00:58.001Z</time></trkpt><trkpt lat="45.81814343941437" lon="8.953999318695823"><ele>406.0</ele><time>2026-04-24T15:01:00.001Z</time></trkpt><trkpt lat="45.818066515099744" lon="8.954017855962887"><ele>406.00000000000006</ele><time>2026-04-24T15:01:02.001Z</time></trkpt><trkpt lat="45.817992426994614" lon="8.954041172362043"><ele>406.0</ele><time>2026-04-24T15:01:03.998Z</time></trkpt><trkpt lat="45.81791644055794" lon="8.95406697882307"><ele>406.00000000000006</ele><time>2026-04-24T15:01:05.998Z</time></trkpt><trkpt lat="45.81783768620854" lon="8.954089830541912"><ele>406.0</ele><time>2026-04-24T15:01:07.998Z</time></trkpt><trkpt lat="45.81776101904463" lon="8.954114833868315"><ele>406.0</ele><time>2026-04-24T15:01:09.998Z</time></trkpt><trkpt lat="45.81766902879089" lon="8.954130217409885"><ele>406.0</ele><time>2026-04-24T15:01:11.998Z</time></trkpt><trkpt lat="45.81760020766476" lon="8.954161045893978"><ele>406.00000000000006</ele><time>2026-04-24T15:01:13.998Z</time></trkpt><trkpt lat="45.817521845123906" lon="8.954176421125759"><ele>406.0</ele><time>2026-04-24T15:01:15.998Z</time></trkpt><trkpt lat="45.81744734812877" lon="8.954201968946592"><ele>406.2857142857143</ele><time>2026-04-24T15:01:17.999Z</time></trkpt><trkpt lat="45.81737219865443" lon="8.95422796398493"><ele>406.57142857142856</ele><time>2026-04-24T15:01:19.999Z</time></trkpt><trkpt lat="45.8172985590882" lon="8.954257656834654"><ele>406.8571428571429</ele><time>2026-04-24T15:01:21.999Z</time></trkpt><trkpt lat="45.81722393554524" lon="8.954271941228114"><ele>407.1428571428571</ele><time>2026-04-24T15:01:23.999Z</time></trkpt><trkpt lat="45.81716738617876" lon="8.954330632757454"><ele>407.42857142857144</ele><time>2026-04-24T15:01:25.999Z</time></trkpt><trkpt lat="45.81711168423217" lon="8.954400007079645"><ele>407.7142857142857</ele><time>2026-04-24T15:01:27.999Z</time></trkpt><trkpt lat="45.817073353073326" lon="8.954475998026973"><ele>408.0</ele><time>2026-04-24T15:01:29.999Z</time></trkpt><trkpt lat="45.81702535245574" lon="8.954592604183993"><ele>408.0</ele><time>2026-04-24T15:01:32.999Z</time></trkpt><trkpt lat="45.81696990966987" lon="8.954704137082171"><ele>408.0</ele><time>2026-04-24T15:01:36Z</time></trkpt><trkpt lat="45.81693046146612" lon="8.954777925975904"><ele>408.0</ele><time>2026-04-24T15:01:38Z</time></trkpt><trkpt lat="45.81689210063423" lon="8.954898606003564"><ele>408.0</ele><time>2026-04-24T15:01:41Z</time></trkpt><trkpt lat="45.816851646605876" lon="8.955007333889549"><ele>408.0</ele><time>2026-04-24T15:01:44Z</time></trkpt><trkpt lat="45.816805834259156" lon="8.955112354229716"><ele>408.0</ele><time>2026-04-24T15:01:47Z</time></trkpt><trkpt lat="45.81676222570076" lon="8.95523480983717"><ele>408.5</ele><time>2026-04-24T15:01:50Z</time></trkpt><trkpt lat="45.81672388758108" lon="8.955318251299184"><ele>409.0</ele><time>2026-04-24T15:01:52Z</time></trkpt><trkpt lat="45.81668642395551" lon="8.955394023133923"><ele>409.5</ele><time>2026-04-24T15:01:54Z</time></trkpt><trkpt lat="45.8166420692117" lon="8.955511693949187"><ele>410.0</ele><time>2026-04-24T15:01:57Z</time></trkpt><trkpt lat="45.8165721177595" lon="8.95560224058754"><ele>410.5</ele><time>2026-04-24T15:02:00Z</time></trkpt><trkpt lat="45.81650103987071" lon="8.955668859498557"><ele>411.0</ele><time>2026-04-24T15:02:03Z</time></trkpt><trkpt lat="45.81645095583156" lon="8.955746438149573"><ele>411.0</ele><time>2026-04-24T15:02:11.001Z</time></trkpt><trkpt lat="45.816422624250194" lon="8.955846046826268"><ele>411.0</ele><time>2026-04-24T15:02:13.001Z</time></trkpt><trkpt lat="45.816389479513724" lon="8.955934953234854"><ele>411.0</ele><time>2026-04-24T15:02:15.001Z</time></trkpt><trkpt lat="45.81637929741304" lon="8.95603088508601"><ele>411.0</ele><time>2026-04-24T15:02:17.001Z</time></trkpt><trkpt lat="45.816359224619646" lon="8.95615575645714"><ele>411.0</ele><time>2026-04-24T15:02:20.001Z</time></trkpt><trkpt lat="45.8163375133647" lon="8.956290809411627"><ele>411.0</ele><time>2026-04-24T15:02:23.001Z</time></trkpt><trkpt lat="45.81633680461763" lon="8.956385861356493"><ele>411.2857142857143</ele><time>2026-04-24T15:02:25.001Z</time></trkpt><trkpt lat="45.81635242249765" lon="8.956518428411881"><ele>411.57142857142856</ele><time>2026-04-24T15:02:28.001Z</time></trkpt><trkpt lat="45.816370130734015" lon="8.95660796218763"><ele>411.8571428571429</ele><time>2026-04-24T15:02:30.001Z</time></trkpt><trkpt lat="45.816399510211674" lon="8.956694465530186"><ele>412.1428571428571</ele><time>2026-04-24T15:02:32.001Z</time></trkpt><trkpt lat="45.816444172120505" lon="8.956766848135985"><ele>412.42857142857144</ele><time>2026-04-24T15:02:34.001Z</time></trkpt><trkpt lat="45.81648319089214" lon="8.956843304865878"><ele>412.7142857142857</ele><time>2026-04-24T15:02:36.001Z</time></trkpt><trkpt lat="45.816441994446855" lon="8.956918990243931"><ele>413.0</ele><time>2026-04-24T15:02:38.001Z</time></trkpt><trkpt lat="45.81636771406829" lon="8.956923083220445"><ele>412.7142857142857</ele><time>2026-04-24T15:02:40.001Z</time></trkpt><trkpt lat="45.81629761945409" lon="8.956918117874869"><ele>412.42857142857144</ele><time>2026-04-24T15:02:42.001Z</time></trkpt><trkpt lat="45.816227683993205" lon="8.956925382408356"><ele>412.1428571428571</ele><time>2026-04-24T15:02:44.001Z</time></trkpt><trkpt lat="45.816155631090275" lon="8.95689446706421"><ele>411.8571428571429</ele><time>2026-04-24T15:02:46.002Z</time></trkpt><trkpt lat="45.8160744535634" lon="8.956906111876332"><ele>411.57142857142856</ele><time>2026-04-24T15:02:48.002Z</time></trkpt><trkpt lat="45.81599727011483" lon="8.956918759039178"><ele>411.2857142857143</ele><time>2026-04-24T15:02:50.002Z</time></trkpt><trkpt lat="45.8159283335907" lon="8.956944759436473"><ele>411.0</ele><time>2026-04-24T15:02:52.002Z</time></trkpt><trkpt lat="45.81585771104512" lon="8.95695667198604"><ele>411.0</ele><time>2026-04-24T15:02:54.002Z</time></trkpt><trkpt lat="45.8157896223054" lon="8.956972276982885"><ele>411.0</ele><time>2026-04-24T15:02:56.002Z</time></trkpt><trkpt lat="45.81571952399292" lon="8.956976522297964"><ele>411.0</ele><time>2026-04-24T15:02:58.002Z</time></trkpt><trkpt lat="45.81564507747091" lon="8.956974046481362"><ele>411.0</ele><time>2026-04-24T15:03:01.002Z</time></trkpt><trkpt lat="45.81557026896538" lon="8.95701586692396"><ele>411.0</ele><time>2026-04-24T15:03:03.002Z</time></trkpt><trkpt lat="45.81549130988692" lon="8.95703206458188"><ele>411.0</ele><time>2026-04-24T15:03:05.002Z</time></trkpt><trkpt lat="45.81541567685566" lon="8.95705091143676"><ele>411.0</ele><time>2026-04-24T15:03:07.002Z</time></trkpt><trkpt lat="45.815342002003725" lon="8.957068930984882"><ele>411.0</ele><time>2026-04-24T15:03:08.999Z</time></trkpt><trkpt lat="45.81526942514236" lon="8.957093385376766"><ele>411.0</ele><time>2026-04-24T15:03:10.999Z</time></trkpt><trkpt lat="45.81519547338202" lon="8.957118136720164"><ele>411.0</ele><time>2026-04-24T15:03:12.999Z</time></trkpt><trkpt lat="45.81512361802117" lon="8.957151199562864"><ele>411.0</ele><time>2026-04-24T15:03:14.999Z</time></trkpt><trkpt lat="45.81505538608677" lon="8.957183426995892"><ele>411.0</ele><time>2026-04-24T15:03:16.999Z</time></trkpt><trkpt lat="45.814982270434776" lon="8.957208659989032"><ele>411.0</ele><time>2026-04-24T15:03:18.999Z</time></trkpt><trkpt lat="45.814910862262536" lon="8.957236705777389"><ele>411.0</ele><time>2026-04-24T15:03:20.999Z</time></trkpt><trkpt lat="45.81484517548896" lon="8.957278823842413"><ele>411.0</ele><time>2026-04-24T15:03:22.999Z</time></trkpt><trkpt lat="45.814772365433654" lon="8.95728794449413"><ele>411.0</ele><time>2026-04-24T15:03:24.999Z</time></trkpt><trkpt lat="45.814717359898104" lon="8.957361607185458"><ele>411.0</ele><time>2026-04-24T15:03:26.999Z</time></trkpt><trkpt lat="45.814657108228175" lon="8.957409704728745"><ele>411.0</ele><time>2026-04-24T15:03:28.999Z</time></trkpt><trkpt lat="45.814600057565016" lon="8.957460829414789"><ele>411.0</ele><time>2026-04-24T15:03:30.999Z</time></trkpt><trkpt lat="45.81452576570987" lon="8.957520025229341"><ele>411.0</ele><time>2026-04-24T15:03:34Z</time></trkpt><trkpt lat="45.81444904032619" lon="8.957569004799412"><ele>411.0</ele><time>2026-04-24T15:03:37Z</time></trkpt><trkpt lat="45.814372137386776" lon="8.957622961364562"><ele>411.0</ele><time>2026-04-24T15:03:40Z</time></trkpt><trkpt lat="45.81429526395273" lon="8.957695642428074"><ele>411.0</ele><time>2026-04-24T15:03:43Z</time></trkpt><trkpt lat="45.81422928324457" lon="8.95775248773876"><ele>411.0</ele><time>2026-04-24T15:03:46Z</time></trkpt><trkpt lat="45.8141555889281" lon="8.95778575716216"><ele>411.0</ele><time>2026-04-24T15:03:49Z</time></trkpt><trkpt lat="45.814080683054215" lon="8.957829164707327"><ele>411.0</ele><time>2026-04-24T15:03:52Z</time></trkpt><trkpt lat="45.81401051367671" lon="8.95787221302377"><ele>412.1666666666667</ele><time>2026-04-24T15:03:55Z</time></trkpt><trkpt lat="45.81393589107098" lon="8.957921620767078"><ele>413.33333333333337</ele><time>2026-04-24T15:03:58Z</time></trkpt><trkpt lat="45.813856782225" lon="8.957965996529891"><ele>414.5</ele><time>2026-04-24T15:04:01.001Z</time></trkpt><trkpt lat="45.81378011824809" lon="8.95800878774694"><ele>415.6666666666667</ele><time>2026-04-24T15:04:04.001Z</time></trkpt><trkpt lat="45.8137032078872" lon="8.958045831251507"><ele>416.83333333333337</ele><time>2026-04-24T15:04:07.001Z</time></trkpt><trkpt lat="45.81363551970375" lon="8.958106849898558"><ele>418.0</ele><time>2026-04-24T15:04:10.001Z</time></trkpt><trkpt lat="45.81357344229975" lon="8.95816414656909"><ele>418.0</ele><time>2026-04-24T15:04:13.001Z</time></trkpt><trkpt lat="45.813499751720094" lon="8.958208505737852"><ele>418.0</ele><time>2026-04-24T15:04:16.001Z</time></trkpt><trkpt lat="45.81342204918626" lon="8.958267771842586"><ele>418.0</ele><time>2026-04-24T15:04:19.001Z</time></trkpt><trkpt lat="45.81334964026121" lon="8.958325228732107"><ele>418.0</ele><time>2026-04-24T15:04:23.001Z</time></trkpt><trkpt lat="45.81328922500513" lon="8.958362736404386"><ele>418.0</ele><time>2026-04-24T15:04:25.001Z</time></trkpt><trkpt lat="45.813226032263515" lon="8.958372126602288"><ele>418.0</ele><time>2026-04-24T15:04:27.001Z</time></trkpt><trkpt lat="45.813157229551095" lon="8.958370357113111"><ele>418.0</ele><time>2026-04-24T15:04:30.001Z</time></trkpt><trkpt lat="45.813081208182346" lon="8.958395271837686"><ele>417.83333333333337</ele><time>2026-04-24T15:04:33.002Z</time></trkpt><trkpt lat="45.813063016873976" lon="8.958503562055633"><ele>417.6666666666667</ele><time>2026-04-24T15:04:36.002Z</time></trkpt><trkpt lat="45.81308641956366" lon="8.958611772076381"><ele>417.5</ele><time>2026-04-24T15:04:38.002Z</time></trkpt><trkpt lat="45.813089927357666" lon="8.958747260187282"><ele>417.33333333333337</ele><time>2026-04-24T15:04:40.002Z</time></trkpt><trkpt lat="45.81305755597634" lon="8.958857477339073"><ele>417.1666666666667</ele><time>2026-04-24T15:04:42.002Z</time></trkpt><trkpt lat="45.81297407642118" lon="8.958896412476047"><ele>417.0</ele><time>2026-04-24T15:04:44.002Z</time></trkpt><trkpt lat="45.81288251010328" lon="8.959026948222693"><ele>417.0</ele><time>2026-04-24T15:04:46.002Z</time></trkpt><trkpt lat="45.81278116937767" lon="8.959042948310767"><ele>417.0</ele><time>2026-04-24T15:04:48.002Z</time></trkpt><trkpt lat="45.81266867329925" lon="8.959016702225075"><ele>417.0</ele><time>2026-04-24T15:04:50.002Z</time></trkpt><trkpt lat="45.81261205938659" lon="8.959060434344892"><ele>417.0</ele><time>2026-04-24T15:04:51.002Z</time></trkpt><trkpt lat="45.81254596733913" lon="8.959073935634638"><ele>417.0</ele><time>2026-04-24T15:04:52.002Z</time></trkpt><trkpt lat="45.8124791213785" lon="8.959107646694365"><ele>417.0</ele><time>2026-04-24T15:04:53.002Z</time></trkpt><trkpt lat="45.81242009635397" lon="8.959159222763002"><ele>416.7142857142857</ele><time>2026-04-24T15:04:54.002Z</time></trkpt><trkpt lat="45.81234249742261" lon="8.959196005276555"><ele>416.4285714285714</ele><time>2026-04-24T15:04:55.002Z</time></trkpt><trkpt lat="45.81227177781768" lon="8.95923541201232"><ele>416.1428571428571</ele><time>2026-04-24T15:04:56.002Z</time></trkpt><trkpt lat="45.81220061940957" lon="8.959274611137962"><ele>415.8571428571429</ele><time>2026-04-24T15:04:57.002Z</time></trkpt><trkpt lat="45.81213180891694" lon="8.959305391233581"><ele>415.57142857142856</ele><time>2026-04-24T15:04:58.002Z</time></trkpt><trkpt lat="45.812066852021665" lon="8.959349181022418"><ele>415.2857142857143</ele><time>2026-04-24T15:04:59.002Z</time></trkpt><trkpt lat="45.81200195617949" lon="8.959373949969837"><ele>415.0</ele><time>2026-04-24T15:05:00.002Z</time></trkpt><trkpt lat="45.81193944542137" lon="8.959410556294468"><ele>414.2</ele><time>2026-04-24T15:05:01.002Z</time></trkpt><trkpt lat="45.811865190384474" lon="8.95946449275428"><ele>413.4</ele><time>2026-04-24T15:05:02.002Z</time></trkpt><trkpt lat="45.811807236063174" lon="8.95951046639861"><ele>412.6</ele><time>2026-04-24T15:05:03.002Z</time></trkpt><trkpt lat="45.81169155226702" lon="8.959572893796805"><ele>411.8</ele><time>2026-04-24T15:05:05.002Z</time></trkpt><trkpt lat="45.81163617449434" lon="8.95962839844433"><ele>411.0</ele><time>2026-04-24T15:05:06.002Z</time></trkpt><trkpt lat="45.811516953146274" lon="8.959681661456097"><ele>411.0</ele><time>2026-04-24T15:05:08.003Z</time></trkpt><trkpt lat="45.811456190502994" lon="8.95974776390784"><ele>411.0</ele><time>2026-04-24T15:05:09.003Z</time></trkpt><trkpt lat="45.81133952598309" lon="8.959773979691825"><ele>411.0</ele><time>2026-04-24T15:05:11.003Z</time></trkpt><trkpt lat="45.81123090610767" lon="8.959829340341996"><ele>411.0</ele><time>2026-04-24T15:05:13.003Z</time></trkpt><trkpt lat="45.811135367982786" lon="8.95989881456632"><ele>411.0</ele><time>2026-04-24T15:05:14.999Z</time></trkpt><trkpt lat="45.8110502921645" lon="8.95998374987553"><ele>409.20000000000005</ele><time>2026-04-24T15:05:16.999Z</time></trkpt><trkpt lat="45.81095665029739" lon="8.960046120447473"><ele>407.40000000000003</ele><time>2026-04-24T15:05:18.999Z</time></trkpt><trkpt lat="45.8108617358492" lon="8.960106420581296"><ele>405.6</ele><time>2026-04-24T15:05:20.999Z</time></trkpt><trkpt lat="45.81076926114419" lon="8.960170361097104"><ele>403.8</ele><time>2026-04-24T15:05:22.999Z</time></trkpt><trkpt lat="45.810674454297704" lon="8.960229418718235"><ele>402.0</ele><time>2026-04-24T15:05:24.999Z</time></trkpt><trkpt lat="45.81057173490581" lon="8.960236188492487"><ele>402.0</ele><time>2026-04-24T15:05:26.999Z</time></trkpt><trkpt lat="45.810473604846365" lon="8.960247788927933"><ele>402.0</ele><time>2026-04-24T15:05:28.999Z</time></trkpt><trkpt lat="45.81037402832585" lon="8.960269358549303"><ele>402.0</ele><time>2026-04-24T15:05:30.999Z</time></trkpt><trkpt lat="45.810270540445345" lon="8.960298237966148"><ele>402.0</ele><time>2026-04-24T15:05:33Z</time></trkpt><trkpt lat="45.81016161058422" lon="8.960330301670542"><ele>402.0</ele><time>2026-04-24T15:05:35Z</time></trkpt><trkpt lat="45.81005242828871" lon="8.960366085914501"><ele>402.20000000000005</ele><time>2026-04-24T15:05:37Z</time></trkpt><trkpt lat="45.809945745995535" lon="8.960394015410262"><ele>402.4</ele><time>2026-04-24T15:05:39Z</time></trkpt><trkpt lat="45.80985092530842" lon="8.960417056612275"><ele>402.6</ele><time>2026-04-24T15:05:41Z</time></trkpt><trkpt lat="45.80975187761951" lon="8.960444762618579"><ele>402.79999999999995</ele><time>2026-04-24T15:05:43Z</time></trkpt><trkpt lat="45.80965546893938" lon="8.960473038848066"><ele>403.0</ele><time>2026-04-24T15:05:45Z</time></trkpt><trkpt lat="45.80955851732199" lon="8.96049905872598"><ele>403.00000000000006</ele><time>2026-04-24T15:05:47Z</time></trkpt><trkpt lat="45.809465728486" lon="8.960525792291252"><ele>403.0</ele><time>2026-04-24T15:05:49Z</time></trkpt><trkpt lat="45.80937725650014" lon="8.960548284192113"><ele>403.0</ele><time>2026-04-24T15:05:51Z</time></trkpt><trkpt lat="45.80928832249181" lon="8.960573030352991"><ele>403.0</ele><time>2026-04-24T15:05:53Z</time></trkpt><trkpt lat="45.80920179823089" lon="8.96059428662123"><ele>403.00000000000006</ele><time>2026-04-24T15:05:55Z</time></trkpt><trkpt lat="45.809118104775585" lon="8.96061774728195"><ele>403.0</ele><time>2026-04-24T15:05:57.001Z</time></trkpt><trkpt lat="45.80903468003751" lon="8.96065124420394"><ele>403.50000000000006</ele><time>2026-04-24T15:05:59.001Z</time></trkpt><trkpt lat="45.80894918131365" lon="8.960681152707838"><ele>404.0</ele><time>2026-04-24T15:06:01.001Z</time></trkpt><trkpt lat="45.80886161149111" lon="8.960701926742678"><ele>404.5</ele><time>2026-04-24T15:06:03.001Z</time></trkpt><trkpt lat="45.80877128298352" lon="8.96072234168551"><ele>405.0</ele><time>2026-04-24T15:06:05.001Z</time></trkpt><trkpt lat="45.80868582307851" lon="8.960740275579965"><ele>405.50000000000006</ele><time>2026-04-24T15:06:07.001Z</time></trkpt><trkpt lat="45.80860240402316" lon="8.960764145404427"><ele>406.0</ele><time>2026-04-24T15:06:09.001Z</time></trkpt><trkpt lat="45.80852613140355" lon="8.960790636295902"><ele>406.4</ele><time>2026-04-24T15:06:11.001Z</time></trkpt><trkpt lat="45.80843804505787" lon="8.960805511957389"><ele>406.8</ele><time>2026-04-24T15:06:13.001Z</time></trkpt><trkpt lat="45.808335967459804" lon="8.960833240640994"><ele>407.2</ele><time>2026-04-24T15:06:15.001Z</time></trkpt><trkpt lat="45.80822503472906" lon="8.960864207891648"><ele>407.59999999999997</ele><time>2026-04-24T15:06:17.001Z</time></trkpt><trkpt lat="45.80810515768429" lon="8.960888896818751"><ele>408.0</ele><time>2026-04-24T15:06:19.001Z</time></trkpt><trkpt lat="45.80804313135217" lon="8.960904761424183"><ele>406.0</ele><time>2026-04-24T15:06:20.001Z</time></trkpt><trkpt lat="45.807918978202245" lon="8.96093132885348"><ele>404.0</ele><time>2026-04-24T15:06:22.001Z</time></trkpt><trkpt lat="45.80785414847133" lon="8.960945647103358"><ele>402.0</ele><time>2026-04-24T15:06:23.001Z</time></trkpt><trkpt lat="45.80778898325998" lon="8.960957301941342"><ele>400.0</ele><time>2026-04-24T15:06:24.001Z</time></trkpt><trkpt lat="45.8077233857264" lon="8.960970478401759"><ele>398.0</ele><time>2026-04-24T15:06:25.001Z</time></trkpt><trkpt lat="45.80765668589774" lon="8.960986845531266"><ele>396.0</ele><time>2026-04-24T15:06:26.001Z</time></trkpt><trkpt lat="45.80758791728791" lon="8.961011471961095"><ele>395.7142857142857</ele><time>2026-04-24T15:06:27.001Z</time></trkpt><trkpt lat="45.807518574759" lon="8.961029037355969"><ele>395.4285714285714</ele><time>2026-04-24T15:06:28.002Z</time></trkpt><trkpt lat="45.80744999922592" lon="8.961040268255685"><ele>395.1428571428571</ele><time>2026-04-24T15:06:29.002Z</time></trkpt><trkpt lat="45.80738030671272" lon="8.961056229181686"><ele>394.8571428571429</ele><time>2026-04-24T15:06:30.002Z</time></trkpt><trkpt lat="45.807310702879086" lon="8.961068514641854"><ele>394.57142857142856</ele><time>2026-04-24T15:06:31.002Z</time></trkpt><trkpt lat="45.80723858833778" lon="8.961081663943029"><ele>394.2857142857143</ele><time>2026-04-24T15:06:32.002Z</time></trkpt><trkpt lat="45.8071653914493" lon="8.961094619610664"><ele>394.0</ele><time>2026-04-24T15:06:33.002Z</time></trkpt><trkpt lat="45.80709137731122" lon="8.961106741232562"><ele>394.0</ele><time>2026-04-24T15:06:34.002Z</time></trkpt><trkpt lat="45.8070172456335" lon="8.961113025431088"><ele>394.0</ele><time>2026-04-24T15:06:35.002Z</time></trkpt><trkpt lat="45.80693987853279" lon="8.96111972320861"><ele>394.0</ele><time>2026-04-24T15:06:36.002Z</time></trkpt><trkpt lat="45.80686518803842" lon="8.961126774633355"><ele>394.0</ele><time>2026-04-24T15:06:37.002Z</time></trkpt><trkpt lat="45.806791944457046" lon="8.961134765645545"><ele>394.0</ele><time>2026-04-24T15:06:38.002Z</time></trkpt><trkpt lat="45.80671450124931" lon="8.96113836629171"><ele>394.0</ele><time>2026-04-24T15:06:39.002Z</time></trkpt><trkpt lat="45.80664465593058" lon="8.961145119160927"><ele>394.0</ele><time>2026-04-24T15:06:40.002Z</time></trkpt><trkpt lat="45.8065734218564" lon="8.96115736358229"><ele>394.2857142857143</ele><time>2026-04-24T15:06:41.002Z</time></trkpt><trkpt lat="45.80650458278193" lon="8.9611637515192"><ele>394.57142857142856</ele><time>2026-04-24T15:06:42.002Z</time></trkpt><trkpt lat="45.806435271746224" lon="8.961169035692055"><ele>394.8571428571429</ele><time>2026-04-24T15:06:43.002Z</time></trkpt><trkpt lat="45.8063654929723" lon="8.961175558799265"><ele>395.1428571428571</ele><time>2026-04-24T15:06:44.002Z</time></trkpt><trkpt lat="45.806294153844945" lon="8.961181880176042"><ele>395.4285714285714</ele><time>2026-04-24T15:06:45.002Z</time></trkpt><trkpt lat="45.80622253763196" lon="8.96119449450834"><ele>395.7142857142857</ele><time>2026-04-24T15:06:46.002Z</time></trkpt><trkpt lat="45.8061532104339" lon="8.961199759212773"><ele>396.0</ele><time>2026-04-24T15:06:47.002Z</time></trkpt><trkpt lat="45.806083419809106" lon="8.961206413034299"><ele>396.0</ele><time>2026-04-24T15:06:48.002Z</time></trkpt><trkpt lat="45.806014637352696" lon="8.961215804959494"><ele>396.0</ele><time>2026-04-24T15:06:49.002Z</time></trkpt><trkpt lat="45.805944629541926" lon="8.961242556880874"><ele>396.0</ele><time>2026-04-24T15:06:50.002Z</time></trkpt><trkpt lat="45.805881022052176" lon="8.961276639894262"><ele>396.0</ele><time>2026-04-24T15:06:51.002Z</time></trkpt><trkpt lat="45.80581094505663" lon="8.96131304301827"><ele>396.0</ele><time>2026-04-24T15:06:52.002Z</time></trkpt><trkpt lat="45.80575040732687" lon="8.961359510289572"><ele>396.0</ele><time>2026-04-24T15:06:53.002Z</time></trkpt><trkpt lat="45.80569081630847" lon="8.961411776772803"><ele>396.0</ele><time>2026-04-24T15:06:54.002Z</time></trkpt><trkpt lat="45.80562818978323" lon="8.96146362188992"><ele>396.2857142857143</ele><time>2026-04-24T15:06:55.002Z</time></trkpt><trkpt lat="45.805564282123434" lon="8.96151844424935"><ele>396.57142857142856</ele><time>2026-04-24T15:06:56.002Z</time></trkpt><trkpt lat="45.8055014632399" lon="8.961567553363752"><ele>396.85714285714283</ele><time>2026-04-24T15:06:57.002Z</time></trkpt><trkpt lat="45.80543542288229" lon="8.961622710391085"><ele>397.1428571428571</ele><time>2026-04-24T15:06:58.002Z</time></trkpt><trkpt lat="45.80536439195938" lon="8.961665132892941"><ele>397.42857142857144</ele><time>2026-04-24T15:06:59.002Z</time></trkpt><trkpt lat="45.80529501502526" lon="8.961703516684645"><ele>397.71428571428567</ele><time>2026-04-24T15:07:00.002Z</time></trkpt><trkpt lat="45.80522470073495" lon="8.961738345293982"><ele>398.0</ele><time>2026-04-24T15:07:01.003Z</time></trkpt><trkpt lat="45.80515564453564" lon="8.961777093911525"><ele>397.1428571428571</ele><time>2026-04-24T15:07:02.003Z</time></trkpt><trkpt lat="45.80509103798657" lon="8.96181041960846"><ele>396.2857142857143</ele><time>2026-04-24T15:07:03.003Z</time></trkpt><trkpt lat="45.80502005114753" lon="8.961845347120912"><ele>395.42857142857144</ele><time>2026-04-24T15:07:04.003Z</time></trkpt><trkpt lat="45.804950824521605" lon="8.961881477024882"><ele>394.57142857142856</ele><time>2026-04-24T15:07:05.003Z</time></trkpt><trkpt lat="45.80488089129968" lon="8.96191161384543"><ele>393.7142857142857</ele><time>2026-04-24T15:07:06.003Z</time></trkpt><trkpt lat="45.80481547188556" lon="8.961950987076115"><ele>392.85714285714283</ele><time>2026-04-24T15:07:07.003Z</time></trkpt><trkpt lat="45.80475387481159" lon="8.961983788679923"><ele>392.0</ele><time>2026-04-24T15:07:08.003Z</time></trkpt><trkpt lat="45.804644611025246" lon="8.962027761603183"><ele>392.0</ele><time>2026-04-24T15:07:10.003Z</time></trkpt><trkpt lat="45.804565505993935" lon="8.962034701207447"><ele>392.0</ele><time>2026-04-24T15:07:12.003Z</time></trkpt><trkpt lat="45.804480835454996" lon="8.96208705715987"><ele>392.0</ele><time>2026-04-24T15:07:26Z</time></trkpt><trkpt lat="45.80440299484959" lon="8.962139446584342"><ele>392.0</ele><time>2026-04-24T15:07:28Z</time></trkpt><trkpt lat="45.80432735856985" lon="8.962233078451742"><ele>392.0</ele><time>2026-04-24T15:07:30Z</time></trkpt><trkpt lat="45.80424564482341" lon="8.96231279896194"><ele>392.0</ele><time>2026-04-24T15:07:32Z</time></trkpt><trkpt lat="45.80415900272473" lon="8.96240749024227"><ele>392.0</ele><time>2026-04-24T15:07:34Z</time></trkpt><trkpt lat="45.804062697781326" lon="8.96248989215065"><ele>392.0</ele><time>2026-04-24T15:07:36Z</time></trkpt><trkpt lat="45.80396770127041" lon="8.962571239207511"><ele>392.0</ele><time>2026-04-24T15:07:38Z</time></trkpt><trkpt lat="45.80387451324801" lon="8.962645372847124"><ele>392.0</ele><time>2026-04-24T15:07:40Z</time></trkpt><trkpt lat="45.8037774901893" lon="8.962733276068455"><ele>392.0</ele><time>2026-04-24T15:07:42Z</time></trkpt><trkpt lat="45.80367750729213" lon="8.9628151037075"><ele>392.0</ele><time>2026-04-24T15:07:44Z</time></trkpt><trkpt lat="45.803580812949235" lon="8.962900122446596"><ele>392.0</ele><time>2026-04-24T15:07:46Z</time></trkpt><trkpt lat="45.803485592051786" lon="8.962995229586516"><ele>392.0</ele><time>2026-04-24T15:07:48Z</time></trkpt><trkpt lat="45.803393592963005" lon="8.963090472918685"><ele>392.25</ele><time>2026-04-24T15:07:50Z</time></trkpt><trkpt lat="45.803294053939425" lon="8.96319065195106"><ele>392.5</ele><time>2026-04-24T15:07:52Z</time></trkpt><trkpt lat="45.80320800027455" lon="8.963297734034049"><ele>392.75</ele><time>2026-04-24T15:07:54.001Z</time></trkpt><trkpt lat="45.80311472851519" lon="8.963405412612909"><ele>393.0</ele><time>2026-04-24T15:07:56.001Z</time></trkpt><trkpt lat="45.803016954371934" lon="8.963523436827309"><ele>392.6666666666667</ele><time>2026-04-24T15:07:58.001Z</time></trkpt><trkpt lat="45.80292575365597" lon="8.963644767232815"><ele>392.33333333333337</ele><time>2026-04-24T15:08:00.001Z</time></trkpt><trkpt lat="45.80288461147028" lon="8.963714219038673"><ele>392.0</ele><time>2026-04-24T15:08:01.001Z</time></trkpt><trkpt lat="45.802831671117346" lon="8.963769742307097"><ele>391.6666666666667</ele><time>2026-04-24T15:08:02.001Z</time></trkpt><trkpt lat="45.802730938838366" lon="8.963882121990707"><ele>391.33333333333337</ele><time>2026-04-24T15:08:04.001Z</time></trkpt><trkpt lat="45.80268002831139" lon="8.963942996755234"><ele>391.0</ele><time>2026-04-24T15:08:05.001Z</time></trkpt><trkpt lat="45.80263022354875" lon="8.963998526091455"><ele>390.83333333333337</ele><time>2026-04-24T15:08:06.001Z</time></trkpt><trkpt lat="45.80257910382549" lon="8.964059092113315"><ele>390.6666666666667</ele><time>2026-04-24T15:08:07.001Z</time></trkpt><trkpt lat="45.802526683578165" lon="8.964114492825441"><ele>390.5</ele><time>2026-04-24T15:08:08.001Z</time></trkpt><trkpt lat="45.80247668578527" lon="8.964176717902735"><ele>390.33333333333337</ele><time>2026-04-24T15:08:09.001Z</time></trkpt><trkpt lat="45.80238558421538" lon="8.964292747250408"><ele>390.1666666666667</ele><time>2026-04-24T15:08:11.001Z</time></trkpt><trkpt lat="45.80233719612517" lon="8.96435171426039"><ele>390.0</ele><time>2026-04-24T15:08:12.001Z</time></trkpt><trkpt lat="45.802245403234394" lon="8.964471214148357"><ele>389.6</ele><time>2026-04-24T15:08:14.001Z</time></trkpt><trkpt lat="45.80218970158057" lon="8.964520212467987"><ele>389.2</ele><time>2026-04-24T15:08:15.001Z</time></trkpt><trkpt lat="45.80209830538658" lon="8.964638781193175"><ele>388.79999999999995</ele><time>2026-04-24T15:08:17.001Z</time></trkpt><trkpt lat="45.80201086207191" lon="8.964755726314594"><ele>388.4</ele><time>2026-04-24T15:08:19.001Z</time></trkpt><trkpt lat="45.80192631130196" lon="8.964835198863668"><ele>388.0</ele><time>2026-04-24T15:08:21.001Z</time></trkpt><trkpt lat="45.80185853120926" lon="8.964921687072327"><ele>388.6666666666667</ele><time>2026-04-24T15:08:23.001Z</time></trkpt><trkpt lat="45.80180470743118" lon="8.964996098972572"><ele>389.33333333333337</ele><time>2026-04-24T15:08:25.001Z</time></trkpt><trkpt lat="45.801746701261855" lon="8.965075838429618"><ele>390.0</ele><time>2026-04-24T15:08:27.002Z</time></trkpt><trkpt lat="45.80169162997166" lon="8.965151025570295"><ele>390.66666666666663</ele><time>2026-04-24T15:08:29.002Z</time></trkpt><trkpt lat="45.80163002637312" lon="8.965237548991935"><ele>391.3333333333333</ele><time>2026-04-24T15:08:31.002Z</time></trkpt><trkpt lat="45.80158702959529" lon="8.965334302216812"><ele>392.0</ele><time>2026-04-24T15:08:33.002Z</time></trkpt><trkpt lat="45.80152311193664" lon="8.965395601278736"><ele>392.16666666666663</ele><time>2026-04-24T15:08:35.002Z</time></trkpt><trkpt lat="45.80147015675627" lon="8.965471707122893"><ele>392.3333333333333</ele><time>2026-04-24T15:08:37.002Z</time></trkpt><trkpt lat="45.801429251784874" lon="8.965566294855641"><ele>392.5</ele><time>2026-04-24T15:08:39.002Z</time></trkpt><trkpt lat="45.80138211848745" lon="8.965645462395544"><ele>392.66666666666663</ele><time>2026-04-24T15:08:41.002Z</time></trkpt><trkpt lat="45.80132115689267" lon="8.965722482043775"><ele>392.8333333333333</ele><time>2026-04-24T15:08:43.002Z</time></trkpt><trkpt lat="45.80125054135145" lon="8.965772830112805"><ele>393.0</ele><time>2026-04-24T15:08:45.002Z</time></trkpt><trkpt lat="45.80119595240524" lon="8.965837262080196"><ele>392.8333333333333</ele><time>2026-04-24T15:08:47.002Z</time></trkpt><trkpt lat="45.801135263956056" lon="8.965893469623788"><ele>392.66666666666663</ele><time>2026-04-24T15:08:49.002Z</time></trkpt><trkpt lat="45.80107131023177" lon="8.965942362308235"><ele>392.5</ele><time>2026-04-24T15:08:51.002Z</time></trkpt><trkpt lat="45.80101102480214" lon="8.965988679385891"><ele>392.3333333333333</ele><time>2026-04-24T15:08:53.002Z</time></trkpt><trkpt lat="45.800933583005104" lon="8.966069085843769"><ele>392.16666666666663</ele><time>2026-04-24T15:08:55.002Z</time></trkpt><trkpt lat="45.800869103613664" lon="8.966151721240074"><ele>392.0</ele><time>2026-04-24T15:08:57.002Z</time></trkpt><trkpt lat="45.80080111621039" lon="8.966244514780165"><ele>392.20000000000005</ele><time>2026-04-24T15:08:59.002Z</time></trkpt><trkpt lat="45.80073268139673" lon="8.966337861219301"><ele>392.4</ele><time>2026-04-24T15:09:01.003Z</time></trkpt><trkpt lat="45.80065686796799" lon="8.966408454424588"><ele>392.6</ele><time>2026-04-24T15:09:03.003Z</time></trkpt><trkpt lat="45.80056812622408" lon="8.966505839409026"><ele>392.79999999999995</ele><time>2026-04-24T15:09:05.003Z</time></trkpt><trkpt lat="45.80049140247028" lon="8.966609583847688"><ele>393.0</ele><time>2026-04-24T15:09:07.003Z</time></trkpt><trkpt lat="45.800407615119504" lon="8.9667153821582"><ele>393.0</ele><time>2026-04-24T15:09:09.003Z</time></trkpt><trkpt lat="45.80033077954976" lon="8.966820691743552"><ele>393.0</ele><time>2026-04-24T15:09:11.003Z</time></trkpt><trkpt lat="45.800255957603575" lon="8.966936517391675"><ele>393.0</ele><time>2026-04-24T15:09:13.003Z</time></trkpt><trkpt lat="45.800187340404285" lon="8.967055739672476"><ele>393.0</ele><time>2026-04-24T15:09:15.003Z</time></trkpt><trkpt lat="45.800128777037514" lon="8.967180191829378"><ele>393.0</ele><time>2026-04-24T15:09:17.003Z</time></trkpt><trkpt lat="45.80007591893908" lon="8.967313421071578"><ele>393.0</ele><time>2026-04-24T15:09:19.003Z</time></trkpt><trkpt lat="45.800021782211786" lon="8.967447560823459"><ele>393.0</ele><time>2026-04-24T15:09:21.003Z</time></trkpt><trkpt lat="45.799957395845375" lon="8.967482415941907"><ele>393.0</ele><time>2026-04-24T15:09:22.003Z</time></trkpt><trkpt lat="45.79986376595378" lon="8.967526018298573"><ele>393.0</ele><time>2026-04-24T15:09:24.003Z</time></trkpt><trkpt lat="45.79976398621623" lon="8.967589650744824"><ele>393.0</ele><time>2026-04-24T15:09:26.003Z</time></trkpt><trkpt lat="45.7996794549228" lon="8.967654661454693"><ele>393.0</ele><time>2026-04-24T15:09:28Z</time></trkpt><trkpt lat="45.79958395030243" lon="8.967711556461737"><ele>393.0</ele><time>2026-04-24T15:09:30Z</time></trkpt><trkpt lat="45.799482984064745" lon="8.967756750530473"><ele>393.0</ele><time>2026-04-24T15:09:32Z</time></trkpt><trkpt lat="45.79938015202748" lon="8.967796530544332"><ele>393.0</ele><time>2026-04-24T15:09:34Z</time></trkpt><trkpt lat="45.79926596704806" lon="8.967818952540885"><ele>393.0</ele><time>2026-04-24T15:09:36Z</time></trkpt><trkpt lat="45.79914033465075" lon="8.967811224745615"><ele>392.42857142857144</ele><time>2026-04-24T15:09:38Z</time></trkpt><trkpt lat="45.79907099070322" lon="8.967818573090229"><ele>391.8571428571429</ele><time>2026-04-24T15:09:39Z</time></trkpt><trkpt lat="45.79900798808687" lon="8.967825677909095"><ele>391.28571428571433</ele><time>2026-04-24T15:09:40Z</time></trkpt><trkpt lat="45.79894307218835" lon="8.96785794812706"><ele>390.7142857142857</ele><time>2026-04-24T15:09:41Z</time></trkpt><trkpt lat="45.79888168155467" lon="8.967908191544199"><ele>390.1428571428571</ele><time>2026-04-24T15:09:42Z</time></trkpt><trkpt lat="45.798820648059305" lon="8.967979183157032"><ele>389.5714285714286</ele><time>2026-04-24T15:09:43Z</time></trkpt><trkpt lat="45.7987537155354" lon="8.968036367085505"><ele>389.0</ele><time>2026-04-24T15:09:44Z</time></trkpt><trkpt lat="45.798691125782966" lon="8.96809985952982"><ele>388.99999999999994</ele><time>2026-04-24T15:09:45Z</time></trkpt><trkpt lat="45.79862145615338" lon="8.968162713494001"><ele>389.0</ele><time>2026-04-24T15:09:46Z</time></trkpt><trkpt lat="45.79855068357159" lon="8.968238259432328"><ele>389.0</ele><time>2026-04-24T15:09:47Z</time></trkpt><trkpt lat="45.79846693051592" lon="8.968287664752308"><ele>389.0</ele><time>2026-04-24T15:09:48Z</time></trkpt><trkpt lat="45.798391137461344" lon="8.968369349637262"><ele>388.99999999999994</ele><time>2026-04-24T15:09:49Z</time></trkpt><trkpt lat="45.79831453160645" lon="8.968432909955354"><ele>389.0</ele><time>2026-04-24T15:09:50Z</time></trkpt><trkpt lat="45.79823541529666" lon="8.968495675392623"><ele>388.3333333333333</ele><time>2026-04-24T15:09:51Z</time></trkpt><trkpt lat="45.7981670849022" lon="8.96856234684006"><ele>387.66666666666663</ele><time>2026-04-24T15:09:52Z</time></trkpt><trkpt lat="45.79809716261964" lon="8.9686338993187"><ele>387.0</ele><time>2026-04-24T15:09:53Z</time></trkpt><trkpt lat="45.79801980035754" lon="8.96870136151475"><ele>386.33333333333337</ele><time>2026-04-24T15:09:54Z</time></trkpt><trkpt lat="45.79794566935503" lon="8.96876599391099"><ele>385.6666666666667</ele><time>2026-04-24T15:09:55Z</time></trkpt><trkpt lat="45.797870024202496" lon="8.968838448337653"><ele>385.0</ele><time>2026-04-24T15:09:56Z</time></trkpt><trkpt lat="45.797794859154145" lon="8.968908941129511"><ele>385.0</ele><time>2026-04-24T15:09:57Z</time></trkpt><trkpt lat="45.79771321778993" lon="8.968971019943703"><ele>385.0</ele><time>2026-04-24T15:09:58Z</time></trkpt><trkpt lat="45.7976327564772" lon="8.969047034968089"><ele>385.0</ele><time>2026-04-24T15:09:59Z</time></trkpt><trkpt lat="45.79755900227839" lon="8.969113345530259"><ele>385.0</ele><time>2026-04-24T15:10:00Z</time></trkpt><trkpt lat="45.797477924376985" lon="8.969183647589606"><ele>385.0</ele><time>2026-04-24T15:10:01.001Z</time></trkpt><trkpt lat="45.79739946257635" lon="8.969256904634824"><ele>384.0</ele><time>2026-04-24T15:10:02.001Z</time></trkpt><trkpt lat="45.79731948090014" lon="8.969326154620274"><ele>383.0</ele><time>2026-04-24T15:10:03.001Z</time></trkpt><trkpt lat="45.79723960555744" lon="8.969399292814972"><ele>382.0</ele><time>2026-04-24T15:10:04.001Z</time></trkpt><trkpt lat="45.79715674454862" lon="8.969466703122777"><ele>381.0</ele><time>2026-04-24T15:10:05.001Z</time></trkpt><trkpt lat="45.79707073311254" lon="8.969524371992307"><ele>380.0</ele><time>2026-04-24T15:10:06.001Z</time></trkpt><trkpt lat="45.79698970372989" lon="8.96957736868853"><ele>380.0</ele><time>2026-04-24T15:10:07.001Z</time></trkpt><trkpt lat="45.796931208700904" lon="8.969612267952199"><ele>380.0</ele><time>2026-04-24T15:10:08.001Z</time></trkpt><trkpt lat="45.796868289413666" lon="8.969639381645367"><ele>380.0</ele><time>2026-04-24T15:10:10.001Z</time></trkpt><trkpt lat="45.79678301920026" lon="8.969650340339085"><ele>380.0</ele><time>2026-04-24T15:10:12.001Z</time></trkpt><trkpt lat="45.796689424379196" lon="8.969679733291693"><ele>380.0</ele><time>2026-04-24T15:10:14.001Z</time></trkpt><trkpt lat="45.79659096767344" lon="8.969765889914923"><ele>380.0</ele><time>2026-04-24T15:10:16.001Z</time></trkpt><trkpt lat="45.796492731410616" lon="8.969823432658632"><ele>379.6666666666667</ele><time>2026-04-24T15:10:18.001Z</time></trkpt><trkpt lat="45.79639497807759" lon="8.969827417770999"><ele>379.33333333333337</ele><time>2026-04-24T15:10:20.001Z</time></trkpt><trkpt lat="45.79630898274761" lon="8.969823774149006"><ele>379.0</ele><time>2026-04-24T15:10:22.001Z</time></trkpt><trkpt lat="45.79622307420404" lon="8.969833856763104"><ele>378.6666666666667</ele><time>2026-04-24T15:10:24.001Z</time></trkpt><trkpt lat="45.79614704581697" lon="8.969844568625348"><ele>378.3333333333333</ele><time>2026-04-24T15:10:26.001Z</time></trkpt><trkpt lat="45.796074615432545" lon="8.969856934482431"><ele>378.0</ele><time>2026-04-24T15:10:28.001Z</time></trkpt><trkpt lat="45.79600431912768" lon="8.969872927110337"><ele>378.7142857142857</ele><time>2026-04-24T15:10:30.001Z</time></trkpt><trkpt lat="45.79593488252865" lon="8.96988835854042"><ele>379.42857142857144</ele><time>2026-04-24T15:10:32.001Z</time></trkpt><trkpt lat="45.79586960928252" lon="8.969904752184954"><ele>380.1428571428571</ele><time>2026-04-24T15:10:34.002Z</time></trkpt><trkpt lat="45.7958086489521" lon="8.969928274027898"><ele>380.8571428571429</ele><time>2026-04-24T15:10:36.002Z</time></trkpt><trkpt lat="45.795721756084085" lon="8.969951019184174"><ele>381.57142857142856</ele><time>2026-04-24T15:10:39.002Z</time></trkpt><trkpt lat="45.79564974630037" lon="8.969974644618343"><ele>382.2857142857143</ele><time>2026-04-24T15:10:42.002Z</time></trkpt><trkpt lat="45.79560624191393" lon="8.970043842983173"><ele>383.0</ele><time>2026-04-24T15:10:45.002Z</time></trkpt><trkpt lat="45.79552665610769" lon="8.970017519931725"><ele>383.1666666666667</ele><time>2026-04-24T15:10:47.002Z</time></trkpt><trkpt lat="45.7954537219118" lon="8.970046279843997"><ele>383.33333333333337</ele><time>2026-04-24T15:10:50.002Z</time></trkpt><trkpt lat="45.795383049115536" lon="8.970070257412468"><ele>383.5</ele><time>2026-04-24T15:10:53.002Z</time></trkpt><trkpt lat="45.795307842207606" lon="8.970096438931362"><ele>383.6666666666667</ele><time>2026-04-24T15:10:56.002Z</time></trkpt><trkpt lat="45.79523567480448" lon="8.970117699677742"><ele>383.8333333333333</ele><time>2026-04-24T15:10:59.002Z</time></trkpt><trkpt lat="45.79516732002476" lon="8.970136953202482"><ele>384.0</ele><time>2026-04-24T15:11:02.002Z</time></trkpt><trkpt lat="45.795085638573866" lon="8.970149161595545"><ele>386.0</ele><time>2026-04-24T15:11:05.002Z</time></trkpt><trkpt lat="45.79501193406561" lon="8.970171967556807"><ele>388.0</ele><time>2026-04-24T15:11:08.003Z</time></trkpt><trkpt lat="45.79494030814383" lon="8.970262642816179"><ele>390.0</ele><time>2026-04-24T15:11:11.003Z</time></trkpt><trkpt lat="45.794864839810394" lon="8.970280086421957"><ele>392.0</ele><time>2026-04-24T15:11:14.003Z</time></trkpt><trkpt lat="45.79479874316743" lon="8.97025468435019"><ele>394.0</ele><time>2026-04-24T15:11:16.003Z</time></trkpt><trkpt lat="45.79471435572551" lon="8.97028545629887"><ele>396.0</ele><time>2026-04-24T15:11:20.003Z</time></trkpt><trkpt lat="45.79464120919375" lon="8.970292313233532"><ele>396.0</ele><time>2026-04-24T15:11:23.003Z</time></trkpt><trkpt lat="45.79457247635126" lon="8.970287263786657"><ele>396.0</ele><time>2026-04-24T15:11:26.003Z</time></trkpt><trkpt lat="45.794491654594346" lon="8.970310352504102"><ele>396.0</ele><time>2026-04-24T15:11:29.003Z</time></trkpt><trkpt lat="45.79442707823183" lon="8.970329649367484"><ele>396.0</ele><time>2026-04-24T15:11:32.003Z</time></trkpt><trkpt lat="45.79435115553816" lon="8.97033125038957"><ele>396.0</ele><time>2026-04-24T15:11:35Z</time></trkpt><trkpt lat="45.79426896133773" lon="8.970322351925788"><ele>396.0</ele><time>2026-04-24T15:11:38Z</time></trkpt><trkpt lat="45.79420073303954" lon="8.970309516976187"><ele>396.0</ele><time>2026-04-24T15:11:41Z</time></trkpt><trkpt lat="45.794122486634755" lon="8.970284066105176"><ele>395.0</ele><time>2026-04-24T15:11:44Z</time></trkpt><trkpt lat="45.79405817992577" lon="8.97028093732789"><ele>394.0</ele><time>2026-04-24T15:11:46Z</time></trkpt><trkpt lat="45.793980405964504" lon="8.970277920358612"><ele>393.0</ele><time>2026-04-24T15:11:48Z</time></trkpt><trkpt lat="45.79388754040302" lon="8.97028539102247"><ele>392.0</ele><time>2026-04-24T15:11:50Z</time></trkpt><trkpt lat="45.79377960279725" lon="8.970295081494337"><ele>391.0</ele><time>2026-04-24T15:11:52Z</time></trkpt><trkpt lat="45.79366640437346" lon="8.970309037563062"><ele>391.0</ele><time>2026-04-24T15:11:54Z</time></trkpt><trkpt lat="45.79355393079371" lon="8.970476171967768"><ele>391.0</ele><time>2026-04-24T15:11:56Z</time></trkpt><trkpt lat="45.793434149382435" lon="8.970483725386186"><ele>391.0</ele><time>2026-04-24T15:11:58Z</time></trkpt><trkpt lat="45.793313531583934" lon="8.970491331664762"><ele>391.0</ele><time>2026-04-24T15:12:00Z</time></trkpt><trkpt lat="45.79319072973358" lon="8.970499075670737"><ele>388.5</ele><time>2026-04-24T15:12:02Z</time></trkpt><trkpt lat="45.79312456032185" lon="8.97036613815562"><ele>386.0</ele><time>2026-04-24T15:12:03Z</time></trkpt><trkpt lat="45.79300126480021" lon="8.970370786409095"><ele>383.5</ele><time>2026-04-24T15:12:05Z</time></trkpt><trkpt lat="45.79288852733803" lon="8.97039223827342"><ele>381.0</ele><time>2026-04-24T15:12:07Z</time></trkpt><trkpt lat="45.792788105481186" lon="8.970440298754093"><ele>381.0</ele><time>2026-04-24T15:12:09.001Z</time></trkpt><trkpt lat="45.792692910258324" lon="8.970494161841653"><ele>381.0</ele><time>2026-04-24T15:12:11.001Z</time></trkpt><trkpt lat="45.79260427345523" lon="8.970545848097837"><ele>381.0</ele><time>2026-04-24T15:12:13.001Z</time></trkpt><trkpt lat="45.79252382493654" lon="8.970622607541944"><ele>381.0</ele><time>2026-04-24T15:12:15.001Z</time></trkpt><trkpt lat="45.79242050725581" lon="8.970666787241553"><ele>381.0</ele><time>2026-04-24T15:12:17.001Z</time></trkpt><trkpt lat="45.79232147183801" lon="8.970728583728054"><ele>381.6</ele><time>2026-04-24T15:12:19.001Z</time></trkpt><trkpt lat="45.792216058828046" lon="8.970791345310468"><ele>382.20000000000005</ele><time>2026-04-24T15:12:21.001Z</time></trkpt><trkpt lat="45.79211685918781" lon="8.970851937255137"><ele>382.79999999999995</ele><time>2026-04-24T15:12:23.001Z</time></trkpt><trkpt lat="45.792025762194584" lon="8.970916080204933"><ele>383.4</ele><time>2026-04-24T15:12:25.001Z</time></trkpt><trkpt lat="45.79191750320813" lon="8.970985783660524"><ele>384.0</ele><time>2026-04-24T15:12:27.001Z</time></trkpt><trkpt lat="45.7917986897969" lon="8.971038865546312"><ele>381.75</ele><time>2026-04-24T15:12:29.001Z</time></trkpt><trkpt lat="45.791676139148734" lon="8.971055426037994"><ele>379.5</ele><time>2026-04-24T15:12:31.001Z</time></trkpt><trkpt lat="45.791561808015345" lon="8.971011459739433"><ele>377.25</ele><time>2026-04-24T15:12:33.001Z</time></trkpt><trkpt lat="45.791460815486175" lon="8.970955564002331"><ele>375.0</ele><time>2026-04-24T15:12:35.001Z</time></trkpt><trkpt lat="45.79136799283348" lon="8.970896990316698"><ele>376.6</ele><time>2026-04-24T15:12:37.001Z</time></trkpt><trkpt lat="45.791286887997195" lon="8.970816387182577"><ele>378.2</ele><time>2026-04-24T15:12:39.001Z</time></trkpt><trkpt lat="45.79122099425639" lon="8.970718852174134"><ele>379.79999999999995</ele><time>2026-04-24T15:12:41.002Z</time></trkpt><trkpt lat="45.79115093141908" lon="8.970637829112995"><ele>381.4</ele><time>2026-04-24T15:12:43.002Z</time></trkpt><trkpt lat="45.7911066147981" lon="8.970524702098945"><ele>383.0</ele><time>2026-04-24T15:12:45.002Z</time></trkpt><trkpt lat="45.79105110420336" lon="8.970425362560928"><ele>383.1666666666667</ele><time>2026-04-24T15:12:47.002Z</time></trkpt><trkpt lat="45.790998483397466" lon="8.9703293770692"><ele>383.33333333333337</ele><time>2026-04-24T15:12:49.002Z</time></trkpt><trkpt lat="45.790945616338014" lon="8.970237691654242"><ele>383.5</ele><time>2026-04-24T15:12:51.002Z</time></trkpt><trkpt lat="45.79087507283484" lon="8.970166983280581"><ele>383.6666666666667</ele><time>2026-04-24T15:12:53.002Z</time></trkpt><trkpt lat="45.79081656612706" lon="8.970099898125133"><ele>383.8333333333333</ele><time>2026-04-24T15:12:55.002Z</time></trkpt><trkpt lat="45.79075153173324" lon="8.97004111233759"><ele>384.0</ele><time>2026-04-24T15:12:57.002Z</time></trkpt><trkpt lat="45.790678806800585" lon="8.970006931433815"><ele>383.99999999999994</ele><time>2026-04-24T15:12:59.002Z</time></trkpt><trkpt lat="45.79060897447951" lon="8.96997835642118"><ele>384.0</ele><time>2026-04-24T15:13:01.002Z</time></trkpt><trkpt lat="45.79053612420627" lon="8.969972302896803"><ele>384.0</ele><time>2026-04-24T15:13:03.002Z</time></trkpt><trkpt lat="45.79046088726892" lon="8.969963248253968"><ele>384.0</ele><time>2026-04-24T15:13:06.002Z</time></trkpt><trkpt lat="45.79037639295574" lon="8.969971288739478"><ele>384.0</ele><time>2026-04-24T15:13:10.002Z</time></trkpt><trkpt lat="45.79030793427775" lon="8.969971601482102"><ele>383.99999999999994</ele><time>2026-04-24T15:13:13.002Z</time></trkpt><trkpt lat="45.790243026215244" lon="8.969972757862447"><ele>384.0</ele><time>2026-04-24T15:13:16.003Z</time></trkpt><trkpt lat="45.79017739373972" lon="8.969963854122405"><ele>384.57142857142856</ele><time>2026-04-24T15:13:19.003Z</time></trkpt><trkpt lat="45.790094452054824" lon="8.969977079973084"><ele>385.1428571428571</ele><time>2026-04-24T15:13:23.003Z</time></trkpt><trkpt lat="45.79001948983761" lon="8.969983618644802"><ele>385.71428571428567</ele><time>2026-04-24T15:13:27.003Z</time></trkpt><trkpt lat="45.78993791268617" lon="8.96998744254685"><ele>386.2857142857143</ele><time>2026-04-24T15:13:31.003Z</time></trkpt><trkpt lat="45.78987349908672" lon="8.969983433885762"><ele>386.8571428571429</ele><time>2026-04-24T15:13:34.003Z</time></trkpt><trkpt lat="45.789803519689364" lon="8.969987198992188"><ele>387.4285714285714</ele><time>2026-04-24T15:13:37.003Z</time></trkpt><trkpt lat="45.789738440409536" lon="8.969988544731425"><ele>388.0</ele><time>2026-04-24T15:13:40Z</time></trkpt><trkpt lat="45.789668775470396" lon="8.969998856447088"><ele>388.00000000000006</ele><time>2026-04-24T15:13:43Z</time></trkpt><trkpt lat="45.789590183702316" lon="8.969999388973317"><ele>388.0</ele><time>2026-04-24T15:13:47Z</time></trkpt><trkpt lat="45.78950860354704" lon="8.970011503169266"><ele>388.0</ele><time>2026-04-24T15:13:51Z</time></trkpt><trkpt lat="45.78942726804705" lon="8.970024017425747"><ele>388.0</ele><time>2026-04-24T15:13:55Z</time></trkpt><trkpt lat="45.78934286636004" lon="8.970027898620526"><ele>388.00000000000006</ele><time>2026-04-24T15:13:59Z</time></trkpt><trkpt lat="45.78926368492528" lon="8.969993971411684"><ele>388.0</ele><time>2026-04-24T15:14:03Z</time></trkpt><trkpt lat="45.789189655733644" lon="8.969954690889605"><ele>389.1666666666667</ele><time>2026-04-24T15:14:07Z</time></trkpt><trkpt lat="45.78911660437762" lon="8.969914419428052"><ele>390.33333333333337</ele><time>2026-04-24T15:14:11.001Z</time></trkpt><trkpt lat="45.789039602279054" lon="8.969870392244767"><ele>391.5</ele><time>2026-04-24T15:14:15.001Z</time></trkpt><trkpt lat="45.7889704650672" lon="8.969835465931482"><ele>392.66666666666663</ele><time>2026-04-24T15:14:19.001Z</time></trkpt><trkpt lat="45.788896636626134" lon="8.969804113080563"><ele>393.8333333333333</ele><time>2026-04-24T15:14:23.001Z</time></trkpt><trkpt lat="45.78881858156408" lon="8.9697615278137"><ele>395.0</ele><time>2026-04-24T15:14:27.001Z</time></trkpt><trkpt lat="45.788755336710985" lon="8.9697361930806"><ele>394.99999999999994</ele><time>2026-04-24T15:14:30.001Z</time></trkpt><trkpt lat="45.78868395957293" lon="8.969685742543259"><ele>395.0</ele><time>2026-04-24T15:14:34.001Z</time></trkpt><trkpt lat="45.7886224355535" lon="8.969657871762275"><ele>395.0</ele><time>2026-04-24T15:14:37.001Z</time></trkpt><trkpt lat="45.78855497720828" lon="8.969635342729008"><ele>395.0</ele><time>2026-04-24T15:14:40.001Z</time></trkpt><trkpt lat="45.78847436484406" lon="8.96963802317727"><ele>394.99999999999994</ele><time>2026-04-24T15:14:44.002Z</time></trkpt><trkpt lat="45.78839146880551" lon="8.969646103170971"><ele>395.0</ele><time>2026-04-24T15:14:48.002Z</time></trkpt><trkpt lat="45.78831382771846" lon="8.969639160299835"><ele>395.99999999999994</ele><time>2026-04-24T15:14:52.002Z</time></trkpt><trkpt lat="45.78823270517449" lon="8.96963802331838"><ele>397.0</ele><time>2026-04-24T15:14:56.002Z</time></trkpt><trkpt lat="45.7881695266677" lon="8.969625670328885"><ele>398.0</ele><time>2026-04-24T15:14:59.002Z</time></trkpt><trkpt lat="45.788086268191826" lon="8.969631272659875"><ele>399.0</ele><time>2026-04-24T15:15:03.002Z</time></trkpt><trkpt lat="45.78800427623992" lon="8.96962961092096"><ele>399.99999999999994</ele><time>2026-04-24T15:15:07.002Z</time></trkpt><trkpt lat="45.78793202999868" lon="8.969634005147508"><ele>401.0</ele><time>2026-04-24T15:15:10.002Z</time></trkpt><trkpt lat="45.787864474574725" lon="8.969629750917058"><ele>401.0</ele><time>2026-04-24T15:15:13.002Z</time></trkpt><trkpt lat="45.787798060125965" lon="8.969625068323893"><ele>401.0</ele><time>2026-04-24T15:15:16.003Z</time></trkpt><trkpt lat="45.78772871040187" lon="8.969627490492629"><ele>401.0</ele><time>2026-04-24T15:15:19.003Z</time></trkpt><trkpt lat="45.787659692613936" lon="8.969623553550097"><ele>401.0</ele><time>2026-04-24T15:15:22.003Z</time></trkpt><trkpt lat="45.78758689600248" lon="8.969624292326266"><ele>401.0</ele><time>2026-04-24T15:15:25.003Z</time></trkpt><trkpt lat="45.78751535857956" lon="8.969628295012406"><ele>401.0</ele><time>2026-04-24T15:15:28.003Z</time></trkpt><trkpt lat="45.78744494502409" lon="8.969625037334485"><ele>401.0</ele><time>2026-04-24T15:15:31.003Z</time></trkpt><trkpt lat="45.78736263273045" lon="8.969622030644107"><ele>401.8333333333333</ele><time>2026-04-24T15:15:35.003Z</time></trkpt><trkpt lat="45.787292070315644" lon="8.969612795463512"><ele>402.66666666666663</ele><time>2026-04-24T15:15:38.003Z</time></trkpt><trkpt lat="45.78723462890712" lon="8.969651343601992"><ele>403.5</ele><time>2026-04-24T15:15:40.003Z</time></trkpt><trkpt lat="45.787190034260064" lon="8.96977171963439"><ele>404.33333333333337</ele><time>2026-04-24T15:15:43.003Z</time></trkpt><trkpt lat="45.78717259604854" lon="8.96990021757295"><ele>405.1666666666667</ele><time>2026-04-24T15:15:46Z</time></trkpt><trkpt lat="45.78714257591612" lon="8.969986239494666"><ele>406.0</ele><time>2026-04-24T15:15:48Z</time></trkpt><trkpt lat="45.787107564467966" lon="8.97006698641685"><ele>406.0</ele><time>2026-04-24T15:15:50Z</time></trkpt><trkpt lat="45.78706470980838" lon="8.970138397519158"><ele>406.0</ele><time>2026-04-24T15:15:52Z</time></trkpt><trkpt lat="45.78701688124899" lon="8.970200832981096"><ele>406.0</ele><time>2026-04-24T15:15:54Z</time></trkpt><trkpt lat="45.78697284082999" lon="8.97027178676086"><ele>406.0</ele><time>2026-04-24T15:15:56Z</time></trkpt><trkpt lat="45.78692389802683" lon="8.97033334227972"><ele>406.0</ele><time>2026-04-24T15:15:58Z</time></trkpt><trkpt lat="45.78687301251949" lon="8.970391022896447"><ele>406.0</ele><time>2026-04-24T15:16:00Z</time></trkpt><trkpt lat="45.78681969811502" lon="8.970448955724976"><ele>406.0</ele><time>2026-04-24T15:16:02Z</time></trkpt><trkpt lat="45.786753863495505" lon="8.970510282075251"><ele>406.57142857142856</ele><time>2026-04-24T15:16:04Z</time></trkpt><trkpt lat="45.786692097025764" lon="8.97056448986274"><ele>407.1428571428571</ele><time>2026-04-24T15:16:06Z</time></trkpt><trkpt lat="45.7866294141413" lon="8.970619452252283"><ele>407.7142857142857</ele><time>2026-04-24T15:16:08Z</time></trkpt><trkpt lat="45.78656913213522" lon="8.97066439593514"><ele>408.2857142857143</ele><time>2026-04-24T15:16:10Z</time></trkpt><trkpt lat="45.78650818221537" lon="8.970725236146347"><ele>408.85714285714283</ele><time>2026-04-24T15:16:12Z</time></trkpt><trkpt lat="45.78644801895034" lon="8.970773761144187"><ele>409.42857142857144</ele><time>2026-04-24T15:16:14Z</time></trkpt><trkpt lat="45.786385693136964" lon="8.970826617892426"><ele>410.0</ele><time>2026-04-24T15:16:16Z</time></trkpt><trkpt lat="45.786316593387575" lon="8.970874422058323"><ele>410.0</ele><time>2026-04-24T15:16:18.001Z</time></trkpt><trkpt lat="45.7862454656247" lon="8.970911389809862"><ele>410.0</ele><time>2026-04-24T15:16:20.001Z</time></trkpt><trkpt lat="45.7861720315025" lon="8.970948060844048"><ele>410.0</ele><time>2026-04-24T15:16:22.001Z</time></trkpt><trkpt lat="45.78611316996154" lon="8.970997316998266"><ele>410.0</ele><time>2026-04-24T15:16:24.001Z</time></trkpt><trkpt lat="45.78605674622871" lon="8.971056085352522"><ele>410.0</ele><time>2026-04-24T15:16:26.001Z</time></trkpt><trkpt lat="45.78598950386561" lon="8.971091054939512"><ele>410.0</ele><time>2026-04-24T15:16:28.001Z</time></trkpt><trkpt lat="45.7859261625948" lon="8.971141914251731"><ele>410.0</ele><time>2026-04-24T15:16:30.001Z</time></trkpt><trkpt lat="45.7858651811165" lon="8.971192583768687"><ele>410.16666666666663</ele><time>2026-04-24T15:16:32.001Z</time></trkpt><trkpt lat="45.78580919170247" lon="8.971257898509297"><ele>410.3333333333333</ele><time>2026-04-24T15:16:34.001Z</time></trkpt><trkpt lat="45.785721412366435" lon="8.971327750034776"><ele>410.5</ele><time>2026-04-24T15:16:37.001Z</time></trkpt><trkpt lat="45.78565932490751" lon="8.971378872190233"><ele>410.66666666666663</ele><time>2026-04-24T15:16:39.001Z</time></trkpt><trkpt lat="45.78560034946166" lon="8.971429732019386"><ele>410.8333333333333</ele><time>2026-04-24T15:16:41.001Z</time></trkpt><trkpt lat="45.7855415070425" lon="8.971479816368277"><ele>411.0</ele><time>2026-04-24T15:16:43.001Z</time></trkpt><trkpt lat="45.78546623943741" lon="8.971538588982675"><ele>411.0</ele><time>2026-04-24T15:16:46.001Z</time></trkpt><trkpt lat="45.785411573135065" lon="8.971602218254928"><ele>411.0</ele><time>2026-04-24T15:16:48.001Z</time></trkpt><trkpt lat="45.78536412649707" lon="8.97166658160072"><ele>411.0</ele><time>2026-04-24T15:16:50.001Z</time></trkpt><trkpt lat="45.78530368448436" lon="8.971755416632732"><ele>411.0</ele><time>2026-04-24T15:16:52.001Z</time></trkpt><trkpt lat="45.78523129015979" lon="8.9718672268224"><ele>411.0</ele><time>2026-04-24T15:16:54.001Z</time></trkpt><trkpt lat="45.785226396377794" lon="8.972029544282453"><ele>411.0</ele><time>2026-04-24T15:16:56.002Z</time></trkpt><trkpt lat="45.78523961096181" lon="8.972187850186053"><ele>411.20000000000005</ele><time>2026-04-24T15:16:58.002Z</time></trkpt><trkpt lat="45.78522596747353" lon="8.972340900344953"><ele>411.40000000000003</ele><time>2026-04-24T15:17:00.002Z</time></trkpt><trkpt lat="45.78520532276482" lon="8.972491512665405"><ele>411.6</ele><time>2026-04-24T15:17:02.002Z</time></trkpt><trkpt lat="45.785179324714214" lon="8.972634523832575"><ele>411.8</ele><time>2026-04-24T15:17:04.002Z</time></trkpt><trkpt lat="45.78516611388238" lon="8.972777798014244"><ele>412.0</ele><time>2026-04-24T15:17:06.002Z</time></trkpt><trkpt lat="45.785144903685605" lon="8.97292140651123"><ele>411.8</ele><time>2026-04-24T15:17:08.002Z</time></trkpt><trkpt lat="45.78512350209704" lon="8.973061928769903"><ele>411.6</ele><time>2026-04-24T15:17:10.002Z</time></trkpt><trkpt lat="45.7850867665336" lon="8.97319124186473"><ele>411.40000000000003</ele><time>2026-04-24T15:17:12.002Z</time></trkpt><trkpt lat="45.78505807627028" lon="8.973318973557019"><ele>411.20000000000005</ele><time>2026-04-24T15:17:14.002Z</time></trkpt><trkpt lat="45.78503269492378" lon="8.973450122479491"><ele>411.0</ele><time>2026-04-24T15:17:16.002Z</time></trkpt><trkpt lat="45.785002535620855" lon="8.973574651636714"><ele>411.0</ele><time>2026-04-24T15:17:18.002Z</time></trkpt><trkpt lat="45.784974047562116" lon="8.973701518756583"><ele>411.0</ele><time>2026-04-24T15:17:20.002Z</time></trkpt><trkpt lat="45.78494492136042" lon="8.973823238954916"><ele>411.0</ele><time>2026-04-24T15:17:22.002Z</time></trkpt><trkpt lat="45.78491712425301" lon="8.973936969724823"><ele>411.0</ele><time>2026-04-24T15:17:24.002Z</time></trkpt><trkpt lat="45.784897368642724" lon="8.974042861828648"><ele>411.0</ele><time>2026-04-24T15:17:26.002Z</time></trkpt><trkpt lat="45.784870595791475" lon="8.974150062904243"><ele>411.0</ele><time>2026-04-24T15:17:28.002Z</time></trkpt><trkpt lat="45.78484276839097" lon="8.974247037541444"><ele>411.3333333333333</ele><time>2026-04-24T15:17:30.002Z</time></trkpt><trkpt lat="45.78481903189134" lon="8.97434286896492"><ele>411.66666666666663</ele><time>2026-04-24T15:17:32.002Z</time></trkpt><trkpt lat="45.78479741176991" lon="8.974430214547766"><ele>412.0</ele><time>2026-04-24T15:17:34.003Z</time></trkpt><trkpt lat="45.78476495599007" lon="8.974553680469757"><ele>412.3333333333333</ele><time>2026-04-24T15:17:37.003Z</time></trkpt><trkpt lat="45.78472862413705" lon="8.97467450881056"><ele>412.66666666666663</ele><time>2026-04-24T15:17:40.003Z</time></trkpt><trkpt lat="45.78469571781824" lon="8.974797664895078"><ele>413.0</ele><time>2026-04-24T15:17:43.003Z</time></trkpt><trkpt lat="45.78467421973777" lon="8.974887994532134"><ele>412.99999999999994</ele><time>2026-04-24T15:17:45.003Z</time></trkpt><trkpt lat="45.78465340157298" lon="8.974973217153677"><ele>413.0</ele><time>2026-04-24T15:17:47.003Z</time></trkpt><trkpt lat="45.784616815663796" lon="8.975092407378616"><ele>413.0</ele><time>2026-04-24T15:17:50.003Z</time></trkpt><trkpt lat="45.78458232806434" lon="8.975213358271477"><ele>413.0</ele><time>2026-04-24T15:17:53Z</time></trkpt><trkpt lat="45.78453979089589" lon="8.975321481571022"><ele>412.99999999999994</ele><time>2026-04-24T15:17:56Z</time></trkpt><trkpt lat="45.78448869026922" lon="8.975419255068134"><ele>413.0</ele><time>2026-04-24T15:17:59Z</time></trkpt><trkpt lat="45.78442155034999" lon="8.975417403316536"><ele>412.66666666666663</ele><time>2026-04-24T15:18:01Z</time></trkpt><trkpt lat="45.78434723873058" lon="8.975383176658292"><ele>412.3333333333333</ele><time>2026-04-24T15:18:03Z</time></trkpt><trkpt lat="45.784282880548936" lon="8.975334835003821"><ele>412.0</ele><time>2026-04-24T15:18:05Z</time></trkpt><trkpt lat="45.784208273538454" lon="8.97530097419427"><ele>411.66666666666663</ele><time>2026-04-24T15:18:07Z</time></trkpt><trkpt lat="45.78412633142007" lon="8.975278195626464"><ele>411.3333333333333</ele><time>2026-04-24T15:18:09Z</time></trkpt><trkpt lat="45.784044346813666" lon="8.975249683844961"><ele>411.0</ele><time>2026-04-24T15:18:11Z</time></trkpt><trkpt lat="45.78396130433849" lon="8.975216641854699"><ele>411.0</ele><time>2026-04-24T15:18:13Z</time></trkpt><trkpt lat="45.78387838035579" lon="8.975190597160289"><ele>411.0</ele><time>2026-04-24T15:18:15Z</time></trkpt><trkpt lat="45.783786120830285" lon="8.975186525262819"><ele>411.0</ele><time>2026-04-24T15:18:17Z</time></trkpt><trkpt lat="45.78370019369326" lon="8.975167774332439"><ele>411.0</ele><time>2026-04-24T15:18:19Z</time></trkpt><trkpt lat="45.78361089598487" lon="8.97515499348952"><ele>411.0</ele><time>2026-04-24T15:18:21Z</time></trkpt><trkpt lat="45.78352020865034" lon="8.975129772466934"><ele>411.0</ele><time>2026-04-24T15:18:23.001Z</time></trkpt><trkpt lat="45.78343129304261" lon="8.975107411759394"><ele>411.20000000000005</ele><time>2026-04-24T15:18:25.001Z</time></trkpt><trkpt lat="45.783338645741786" lon="8.975081904523762"><ele>411.40000000000003</ele><time>2026-04-24T15:18:27.001Z</time></trkpt><trkpt lat="45.78324960625392" lon="8.97504052935905"><ele>411.6</ele><time>2026-04-24T15:18:29.001Z</time></trkpt><trkpt lat="45.78315810701019" lon="8.975022179336552"><ele>411.8</ele><time>2026-04-24T15:18:31.001Z</time></trkpt><trkpt lat="45.78306935226014" lon="8.97499286394631"><ele>412.0</ele><time>2026-04-24T15:18:33.001Z</time></trkpt><trkpt lat="45.78298142512227" lon="8.974962403259944"><ele>412.0</ele><time>2026-04-24T15:18:35.001Z</time></trkpt><trkpt lat="45.78289392726844" lon="8.974933597193093"><ele>412.0</ele><time>2026-04-24T15:18:37.001Z</time></trkpt><trkpt lat="45.78280197064781" lon="8.974905116186985"><ele>412.0</ele><time>2026-04-24T15:18:39.001Z</time></trkpt><trkpt lat="45.78271550951778" lon="8.974877676570198"><ele>412.0</ele><time>2026-04-24T15:18:41.001Z</time></trkpt><trkpt lat="45.782629543920876" lon="8.974877737223764"><ele>412.0</ele><time>2026-04-24T15:18:43.001Z</time></trkpt><trkpt lat="45.782537116374506" lon="8.974907798731593"><ele>411.33333333333337</ele><time>2026-04-24T15:18:45.001Z</time></trkpt><trkpt lat="45.78245364867722" lon="8.974926992600402"><ele>410.6666666666667</ele><time>2026-04-24T15:18:47.001Z</time></trkpt><trkpt lat="45.782367737075816" lon="8.974936933873026"><ele>410.0</ele><time>2026-04-24T15:18:49.001Z</time></trkpt><trkpt lat="45.78227707260455" lon="8.97495815240962"><ele>409.33333333333337</ele><time>2026-04-24T15:18:51.001Z</time></trkpt><trkpt lat="45.782189513555906" lon="8.974955323543464"><ele>408.6666666666667</ele><time>2026-04-24T15:18:53.001Z</time></trkpt><trkpt lat="45.78209911246559" lon="8.974938870200152"><ele>408.0</ele><time>2026-04-24T15:18:55.001Z</time></trkpt><trkpt lat="45.782024947978464" lon="8.974908217445508"><ele>408.0</ele><time>2026-04-24T15:18:57.001Z</time></trkpt><trkpt lat="45.781943894125874" lon="8.974876843837595"><ele>408.0</ele><time>2026-04-24T15:18:59.002Z</time></trkpt><trkpt lat="45.781852068783074" lon="8.974883261307697"><ele>408.0</ele><time>2026-04-24T15:19:01.002Z</time></trkpt><trkpt lat="45.781769073753864" lon="8.974853038524362"><ele>408.0</ele><time>2026-04-24T15:19:03.002Z</time></trkpt><trkpt lat="45.781680032466866" lon="8.974820162024795"><ele>408.0</ele><time>2026-04-24T15:19:05.002Z</time></trkpt><trkpt lat="45.781589401913074" lon="8.974797266137577"><ele>408.0</ele><time>2026-04-24T15:19:07.002Z</time></trkpt><trkpt lat="45.781495714633635" lon="8.974771939578211"><ele>408.3333333333333</ele><time>2026-04-24T15:19:09.002Z</time></trkpt><trkpt lat="45.78140353439429" lon="8.974744241068791"><ele>408.66666666666663</ele><time>2026-04-24T15:19:11.002Z</time></trkpt><trkpt lat="45.78131124119848" lon="8.974731536689312"><ele>409.0</ele><time>2026-04-24T15:19:13.002Z</time></trkpt><trkpt lat="45.781242527103956" lon="8.974700157700392"><ele>409.3333333333333</ele><time>2026-04-24T15:19:15.002Z</time></trkpt><trkpt lat="45.78120733146234" lon="8.9746098760279"><ele>409.66666666666663</ele><time>2026-04-24T15:19:17.002Z</time></trkpt><trkpt lat="45.78118546383164" lon="8.974502649758204"><ele>410.0</ele><time>2026-04-24T15:19:19.002Z</time></trkpt><trkpt lat="45.781149984603076" lon="8.974386416635937"><ele>410.0</ele><time>2026-04-24T15:19:21.002Z</time></trkpt><trkpt lat="45.781120729287515" lon="8.974258157097161"><ele>410.0</ele><time>2026-04-24T15:19:23.002Z</time></trkpt><trkpt lat="45.78108191311525" lon="8.974121930052364"><ele>410.0</ele><time>2026-04-24T15:19:25.002Z</time></trkpt><trkpt lat="45.78103807821163" lon="8.973972062306151"><ele>410.0</ele><time>2026-04-24T15:19:27.002Z</time></trkpt><trkpt lat="45.78100744445549" lon="8.973856510087474"><ele>410.0</ele><time>2026-04-24T15:19:29.002Z</time></trkpt><trkpt lat="45.7809719073795" lon="8.973766021236287"><ele>409.66666666666663</ele><time>2026-04-24T15:19:33.002Z</time></trkpt><trkpt lat="45.78100090359091" lon="8.973676555018836"><ele>409.3333333333333</ele><time>2026-04-24T15:19:39.003Z</time></trkpt><trkpt lat="45.780907968188195" lon="8.973652648809086"><ele>409.0</ele><time>2026-04-24T15:19:42.003Z</time></trkpt><trkpt lat="45.780829870107425" lon="8.973693213015926"><ele>408.66666666666663</ele><time>2026-04-24T15:19:44.003Z</time></trkpt><trkpt lat="45.780755303283826" lon="8.973746384305974"><ele>408.3333333333333</ele><time>2026-04-24T15:19:46.003Z</time></trkpt><trkpt lat="45.78067746156617" lon="8.973799744478733"><ele>408.0</ele><time>2026-04-24T15:19:48.003Z</time></trkpt><trkpt lat="45.78060166727537" lon="8.973850219508677"><ele>408.0</ele><time>2026-04-24T15:19:50.003Z</time></trkpt><trkpt lat="45.780520111716314" lon="8.973884060198008"><ele>408.0</ele><time>2026-04-24T15:19:52.003Z</time></trkpt><trkpt lat="45.78043947693206" lon="8.97392203967572"><ele>408.0</ele><time>2026-04-24T15:19:54.003Z</time></trkpt><trkpt lat="45.780360187508634" lon="8.973967880387189"><ele>408.0</ele><time>2026-04-24T15:19:56.003Z</time></trkpt><trkpt lat="45.78028007436103" lon="8.97401016722206"><ele>408.0</ele><time>2026-04-24T15:19:58Z</time></trkpt><trkpt lat="45.78020170252338" lon="8.974057531825208"><ele>408.0</ele><time>2026-04-24T15:20:00Z</time></trkpt><trkpt lat="45.780120155087516" lon="8.974105312123024"><ele>407.8333333333333</ele><time>2026-04-24T15:20:02Z</time></trkpt><trkpt lat="45.78003912395226" lon="8.974149961658318"><ele>407.66666666666663</ele><time>2026-04-24T15:20:04Z</time></trkpt><trkpt lat="45.779958103362816" lon="8.974193349552204"><ele>407.5</ele><time>2026-04-24T15:20:06Z</time></trkpt><trkpt lat="45.779873324810914" lon="8.974239421331012"><ele>407.3333333333333</ele><time>2026-04-24T15:20:08Z</time></trkpt><trkpt lat="45.7797887182879" lon="8.974289014949091"><ele>407.16666666666663</ele><time>2026-04-24T15:20:10Z</time></trkpt><trkpt lat="45.77970288470038" lon="8.97433665776721"><ele>407.0</ele><time>2026-04-24T15:20:12Z</time></trkpt><trkpt lat="45.77962024249638" lon="8.974383081305735"><ele>407.3333333333333</ele><time>2026-04-24T15:20:14Z</time></trkpt><trkpt lat="45.779541419308224" lon="8.974430633784978"><ele>407.66666666666663</ele><time>2026-04-24T15:20:16Z</time></trkpt><trkpt lat="45.779458622845716" lon="8.974477732399684"><ele>408.0</ele><time>2026-04-24T15:20:18Z</time></trkpt><trkpt lat="45.77937774766633" lon="8.974524107395574"><ele>408.33333333333337</ele><time>2026-04-24T15:20:20Z</time></trkpt><trkpt lat="45.779298232622224" lon="8.974575679320893"><ele>408.6666666666667</ele><time>2026-04-24T15:20:22Z</time></trkpt><trkpt lat="45.779214946397744" lon="8.97462246817425"><ele>409.0</ele><time>2026-04-24T15:20:24Z</time></trkpt><trkpt lat="45.7791312739797" lon="8.974662852279987"><ele>409.2</ele><time>2026-04-24T15:20:26.001Z</time></trkpt><trkpt lat="45.779046080974574" lon="8.974713224860492"><ele>409.4</ele><time>2026-04-24T15:20:28.001Z</time></trkpt><trkpt lat="45.77895983785752" lon="8.974759531406935"><ele>409.6</ele><time>2026-04-24T15:20:30.001Z</time></trkpt><trkpt lat="45.77887100116935" lon="8.974804146570762"><ele>409.8</ele><time>2026-04-24T15:20:32.001Z</time></trkpt><trkpt lat="45.77878248150863" lon="8.97485322189409"><ele>410.0</ele><time>2026-04-24T15:20:34.001Z</time></trkpt><trkpt lat="45.77868998280225" lon="8.974907414923305"><ele>410.0</ele><time>2026-04-24T15:20:36.001Z</time></trkpt><trkpt lat="45.77860252969982" lon="8.97496386438526"><ele>410.0</ele><time>2026-04-24T15:20:38.001Z</time></trkpt><trkpt lat="45.778515324871634" lon="8.975038016860122"><ele>410.0</ele><time>2026-04-24T15:20:40.001Z</time></trkpt><trkpt lat="45.778435197445695" lon="8.975121431997085"><ele>410.0</ele><time>2026-04-24T15:20:42.001Z</time></trkpt><trkpt lat="45.77835598189696" lon="8.975204687665322"><ele>410.0</ele><time>2026-04-24T15:20:44.001Z</time></trkpt><trkpt lat="45.77827945759143" lon="8.97529035156755"><ele>409.6</ele><time>2026-04-24T15:20:46.001Z</time></trkpt><trkpt lat="45.77820416972258" lon="8.975392207282061"><ele>409.2</ele><time>2026-04-24T15:20:48.001Z</time></trkpt><trkpt lat="45.77810097125303" lon="8.975440187805686"><ele>408.79999999999995</ele><time>2026-04-24T15:20:50.001Z</time></trkpt><trkpt lat="45.77804794495541" lon="8.975493156213638"><ele>408.4</ele><time>2026-04-24T15:20:52.001Z</time></trkpt><trkpt lat="45.7779363717564" lon="8.975389468726258"><ele>408.0</ele><time>2026-04-24T15:20:53.001Z</time></trkpt><trkpt lat="45.77781947364824" lon="8.975378262368501"><ele>408.0</ele><time>2026-04-24T15:20:55.001Z</time></trkpt><trkpt lat="45.777704449550086" lon="8.975356897781808"><ele>408.0</ele><time>2026-04-24T15:20:57.001Z</time></trkpt><trkpt lat="45.77758923852096" lon="8.975327037722787"><ele>408.0</ele><time>2026-04-24T15:20:59.001Z</time></trkpt><trkpt lat="45.77752661760601" lon="8.975316486257313"><ele>408.0</ele><time>2026-04-24T15:21:00.001Z</time></trkpt><trkpt lat="45.77741178034717" lon="8.975279831504773"><ele>408.0</ele><time>2026-04-24T15:21:02.001Z</time></trkpt><trkpt lat="45.77730204331751" lon="8.97525791435881"><ele>407.59999999999997</ele><time>2026-04-24T15:21:04.002Z</time></trkpt><trkpt lat="45.77723754204004" lon="8.975243748448637"><ele>407.2</ele><time>2026-04-24T15:21:05.002Z</time></trkpt><trkpt lat="45.777122313166906" lon="8.975208569117623"><ele>406.8</ele><time>2026-04-24T15:21:07.002Z</time></trkpt><trkpt lat="45.77700437142998" lon="8.975171881192507"><ele>406.4</ele><time>2026-04-24T15:21:09.002Z</time></trkpt><trkpt lat="45.77688888718138" lon="8.975144413311668"><ele>406.0</ele><time>2026-04-24T15:21:11.002Z</time></trkpt><trkpt lat="45.77677754811375" lon="8.975110427107975"><ele>405.4</ele><time>2026-04-24T15:21:13.002Z</time></trkpt><trkpt lat="45.776661600848776" lon="8.975079908397614"><ele>404.8</ele><time>2026-04-24T15:21:15.002Z</time></trkpt><trkpt lat="45.776548750834564" lon="8.975051507730495"><ele>404.2</ele><time>2026-04-24T15:21:17.002Z</time></trkpt><trkpt lat="45.77644988923082" lon="8.97501732127661"><ele>403.59999999999997</ele><time>2026-04-24T15:21:19.002Z</time></trkpt><trkpt lat="45.776379358411525" lon="8.975009160560603"><ele>403.0</ele><time>2026-04-24T15:21:20.002Z</time></trkpt><trkpt lat="45.77626881822422" lon="8.97497984968003"><ele>403.0</ele><time>2026-04-24T15:21:22.002Z</time></trkpt><trkpt lat="45.776154234065295" lon="8.974961656050525"><ele>403.0</ele><time>2026-04-24T15:21:24.002Z</time></trkpt><trkpt lat="45.7760475531388" lon="8.974946505662542"><ele>403.0</ele><time>2026-04-24T15:21:26.002Z</time></trkpt><trkpt lat="45.775939918694384" lon="8.974934289893257"><ele>403.0</ele><time>2026-04-24T15:21:28.002Z</time></trkpt><trkpt lat="45.775845064012984" lon="8.974927600731679"><ele>403.0</ele><time>2026-04-24T15:21:30.002Z</time></trkpt><trkpt lat="45.77574305791674" lon="8.97491921168075"><ele>403.0</ele><time>2026-04-24T15:21:32.002Z</time></trkpt><trkpt lat="45.77564305222249" lon="8.974905290011161"><ele>403.0</ele><time>2026-04-24T15:21:34.002Z</time></trkpt><trkpt lat="45.775542612503806" lon="8.974892068729762"><ele>403.0</ele><time>2026-04-24T15:21:36.002Z</time></trkpt><trkpt lat="45.775439991995015" lon="8.974880536362587"><ele>403.0</ele><time>2026-04-24T15:21:38.002Z</time></trkpt><trkpt lat="45.775337341031936" lon="8.974865492155148"><ele>403.0</ele><time>2026-04-24T15:21:40.003Z</time></trkpt><trkpt lat="45.77524181534495" lon="8.974858265548642"><ele>403.4</ele><time>2026-04-24T15:21:42.003Z</time></trkpt><trkpt lat="45.775147111201605" lon="8.974852183372004"><ele>403.79999999999995</ele><time>2026-04-24T15:21:44.003Z</time></trkpt><trkpt lat="45.77505352106694" lon="8.974842156734317"><ele>404.2</ele><time>2026-04-24T15:21:46.003Z</time></trkpt><trkpt lat="45.774965952553735" lon="8.974830049034415"><ele>404.6</ele><time>2026-04-24T15:21:48.003Z</time></trkpt><trkpt lat="45.77488005574549" lon="8.974816110868558"><ele>405.0</ele><time>2026-04-24T15:21:50.003Z</time></trkpt><trkpt lat="45.77479295360207" lon="8.974819305019302"><ele>405.0</ele><time>2026-04-24T15:21:52.003Z</time></trkpt><trkpt lat="45.774704335790545" lon="8.974808868125255"><ele>405.0</ele><time>2026-04-24T15:21:54.003Z</time></trkpt><trkpt lat="45.774623982165004" lon="8.974791683534393"><ele>405.0</ele><time>2026-04-24T15:21:56.003Z</time></trkpt><trkpt lat="45.77453804106164" lon="8.97478982837714"><ele>405.0</ele><time>2026-04-24T15:21:58.003Z</time></trkpt><trkpt lat="45.77444986176931" lon="8.974784706717365"><ele>405.0</ele><time>2026-04-24T15:22:00.003Z</time></trkpt><trkpt lat="45.77436314518833" lon="8.974775764634696"><ele>405.0</ele><time>2026-04-24T15:22:02.003Z</time></trkpt><trkpt lat="45.77427258205139" lon="8.974769527646425"><ele>404.8</ele><time>2026-04-24T15:22:04Z</time></trkpt><trkpt lat="45.77417733509137" lon="8.97476547350135"><ele>404.6</ele><time>2026-04-24T15:22:06Z</time></trkpt><trkpt lat="45.77409008259791" lon="8.974752313532527"><ele>404.4</ele><time>2026-04-24T15:22:08Z</time></trkpt><trkpt lat="45.774006724006014" lon="8.974743683036037"><ele>404.2</ele><time>2026-04-24T15:22:10Z</time></trkpt><trkpt lat="45.773925022731014" lon="8.97474057876452"><ele>404.0</ele><time>2026-04-24T15:22:12Z</time></trkpt><trkpt lat="45.77391976292521" lon="8.974573691731946"><ele>403.99999999999994</ele><time>2026-04-24T15:22:15Z</time></trkpt><trkpt lat="45.77395014912807" lon="8.9744518654195"><ele>404.0</ele><time>2026-04-24T15:22:18Z</time></trkpt><trkpt lat="45.77398235585174" lon="8.974357950822707"><ele>404.0</ele><time>2026-04-24T15:22:20Z</time></trkpt><trkpt lat="45.77399095634621" lon="8.974221797356442"><ele>404.0</ele><time>2026-04-24T15:22:22Z</time></trkpt><trkpt lat="45.77400967958913" lon="8.974098070785391"><ele>403.99999999999994</ele><time>2026-04-24T15:22:24Z</time></trkpt><trkpt lat="45.7740279213093" lon="8.973971276536927"><ele>404.0</ele><time>2026-04-24T15:22:26Z</time></trkpt><trkpt lat="45.77404743771722" lon="8.973847749034512"><ele>408.0</ele><time>2026-04-24T15:22:28Z</time></trkpt><trkpt lat="45.77406525345186" lon="8.973723919784037"><ele>408.0</ele><time>2026-04-24T15:22:30Z</time></trkpt><trkpt lat="45.7740800926796" lon="8.973609825696343"><ele>408.0</ele><time>2026-04-24T15:22:32Z</time></trkpt><trkpt lat="45.774078058294485" lon="8.973487605017665"><ele>408.0</ele><time>2026-04-24T15:22:34Z</time></trkpt></trkseg></trk></gpx>